<?xml version="1.0" encoding="UTF-8" standalone="no" ?>
<gpx xmlns="http://www.topografix.com/GPX/1/1" xmlns:xsi="http://www.w3.org/2001/XMLSchema-instance" xsi:schemaLocation="http://www.topografix.com/GPX/1/1 http://www.topografix.com/GPX/1/1/gpx.xsd" version="1.1" creator="VisuGPX - https://www.visugpx.com">
  <metadata>
    <name>2021-12-09 Lac de Barriere-Limous- Fournes- Séries-Marmoriere- Salléles Cabardès</name>
  </metadata>
  <trk>
    <name><![CDATA[2021-12-09 Lac de Barriere-Limous- Fournes- Séries-Marmoriere- Salléles Cabardès]]></name>
    <trkseg>
      <trkpt lat="43.29435" lon="2.42618">
        <ele>177.2890625</ele>
        <time>2021-12-09T07:53:09Z</time>
      </trkpt>
      <trkpt lat="43.29444" lon="2.42614">
        <ele>177.60546875</ele>
        <time>2021-12-09T07:53:19Z</time>
      </trkpt>
      <trkpt lat="43.29452" lon="2.42607">
        <ele>177.9609375</ele>
        <time>2021-12-09T07:53:25Z</time>
      </trkpt>
      <trkpt lat="43.2946" lon="2.42595">
        <ele>178.55078125</ele>
        <time>2021-12-09T07:53:37Z</time>
      </trkpt>
      <trkpt lat="43.29471" lon="2.42584">
        <ele>179.48828125</ele>
        <time>2021-12-09T07:53:50Z</time>
      </trkpt>
      <trkpt lat="43.29488" lon="2.42582">
        <ele>179.32421875</ele>
        <time>2021-12-09T07:53:57Z</time>
      </trkpt>
      <trkpt lat="43.29501" lon="2.4257">
        <ele>179.640625</ele>
        <time>2021-12-09T07:54:05Z</time>
      </trkpt>
      <trkpt lat="43.2951" lon="2.42563">
        <ele>179.90625</ele>
        <time>2021-12-09T07:54:11Z</time>
      </trkpt>
      <trkpt lat="43.29524" lon="2.42555">
        <ele>180.38671875</ele>
        <time>2021-12-09T07:54:19Z</time>
      </trkpt>
      <trkpt lat="43.29533" lon="2.42546">
        <ele>180.7578125</ele>
        <time>2021-12-09T07:54:25Z</time>
      </trkpt>
      <trkpt lat="43.2954" lon="2.42537">
        <ele>180.99609375</ele>
        <time>2021-12-09T07:54:30Z</time>
      </trkpt>
      <trkpt lat="43.29551" lon="2.42506">
        <ele>182.421875</ele>
        <time>2021-12-09T07:54:42Z</time>
      </trkpt>
      <trkpt lat="43.29562" lon="2.4248">
        <ele>183.57421875</ele>
        <time>2021-12-09T07:54:51Z</time>
      </trkpt>
      <trkpt lat="43.29572" lon="2.42469">
        <ele>184.359375</ele>
        <time>2021-12-09T07:54:58Z</time>
      </trkpt>
      <trkpt lat="43.29577" lon="2.42459">
        <ele>185.09765625</ele>
        <time>2021-12-09T07:55:03Z</time>
      </trkpt>
      <trkpt lat="43.29581" lon="2.42439">
        <ele>186.22265625</ele>
        <time>2021-12-09T07:55:11Z</time>
      </trkpt>
      <trkpt lat="43.29586" lon="2.42425">
        <ele>186.8046875</ele>
        <time>2021-12-09T07:55:18Z</time>
      </trkpt>
      <trkpt lat="43.29592" lon="2.42412">
        <ele>186.5859375</ele>
        <time>2021-12-09T07:55:25Z</time>
      </trkpt>
      <trkpt lat="43.296" lon="2.42392">
        <ele>186.46875</ele>
        <time>2021-12-09T07:55:35Z</time>
      </trkpt>
      <trkpt lat="43.29604" lon="2.42379">
        <ele>186.78515625</ele>
        <time>2021-12-09T07:55:41Z</time>
      </trkpt>
      <trkpt lat="43.29609" lon="2.42367">
        <ele>187.11328125</ele>
        <time>2021-12-09T07:55:46Z</time>
      </trkpt>
      <trkpt lat="43.29614" lon="2.42357">
        <ele>187.6015625</ele>
        <time>2021-12-09T07:55:51Z</time>
      </trkpt>
      <trkpt lat="43.29617" lon="2.42344">
        <ele>188.49609375</ele>
        <time>2021-12-09T07:55:55Z</time>
      </trkpt>
      <trkpt lat="43.29622" lon="2.42334">
        <ele>189.3046875</ele>
        <time>2021-12-09T07:56:00Z</time>
      </trkpt>
      <trkpt lat="43.29629" lon="2.42323">
        <ele>190.45703125</ele>
        <time>2021-12-09T07:56:05Z</time>
      </trkpt>
      <trkpt lat="43.2964" lon="2.42305">
        <ele>192.9609375</ele>
        <time>2021-12-09T07:56:14Z</time>
      </trkpt>
      <trkpt lat="43.29644" lon="2.42291">
        <ele>193.578125</ele>
        <time>2021-12-09T07:56:19Z</time>
      </trkpt>
      <trkpt lat="43.2965" lon="2.42281">
        <ele>193.33203125</ele>
        <time>2021-12-09T07:56:25Z</time>
      </trkpt>
      <trkpt lat="43.29664" lon="2.42268">
        <ele>193.43359375</ele>
        <time>2021-12-09T07:56:34Z</time>
      </trkpt>
      <trkpt lat="43.29678" lon="2.42258">
        <ele>194.17578125</ele>
        <time>2021-12-09T07:56:42Z</time>
      </trkpt>
      <trkpt lat="43.2969" lon="2.4225">
        <ele>195.44921875</ele>
        <time>2021-12-09T07:56:49Z</time>
      </trkpt>
      <trkpt lat="43.29705" lon="2.42236">
        <ele>196.21484375</ele>
        <time>2021-12-09T07:56:57Z</time>
      </trkpt>
      <trkpt lat="43.29722" lon="2.42222">
        <ele>195.796875</ele>
        <time>2021-12-09T07:57:06Z</time>
      </trkpt>
      <trkpt lat="43.29732" lon="2.42215">
        <ele>195.96875</ele>
        <time>2021-12-09T07:57:11Z</time>
      </trkpt>
      <trkpt lat="43.29738" lon="2.42206">
        <ele>196.98828125</ele>
        <time>2021-12-09T07:57:17Z</time>
      </trkpt>
      <trkpt lat="43.29752" lon="2.42196">
        <ele>198.109375</ele>
        <time>2021-12-09T07:57:27Z</time>
      </trkpt>
      <trkpt lat="43.29762" lon="2.42189">
        <ele>198.64453125</ele>
        <time>2021-12-09T07:57:34Z</time>
      </trkpt>
      <trkpt lat="43.29771" lon="2.42182">
        <ele>199.01171875</ele>
        <time>2021-12-09T07:57:39Z</time>
      </trkpt>
      <trkpt lat="43.29779" lon="2.42174">
        <ele>199.51953125</ele>
        <time>2021-12-09T07:57:45Z</time>
      </trkpt>
      <trkpt lat="43.2979" lon="2.42173">
        <ele>199.1796875</ele>
        <time>2021-12-09T07:57:50Z</time>
      </trkpt>
      <trkpt lat="43.298" lon="2.42163">
        <ele>200.3046875</ele>
        <time>2021-12-09T07:57:56Z</time>
      </trkpt>
      <trkpt lat="43.29809" lon="2.42156">
        <ele>201.08203125</ele>
        <time>2021-12-09T07:58:01Z</time>
      </trkpt>
      <trkpt lat="43.29818" lon="2.42153">
        <ele>200.96875</ele>
        <time>2021-12-09T07:58:05Z</time>
      </trkpt>
      <trkpt lat="43.29836" lon="2.42147">
        <ele>200.703125</ele>
        <time>2021-12-09T07:58:13Z</time>
      </trkpt>
      <trkpt lat="43.29847" lon="2.42141">
        <ele>200.890625</ele>
        <time>2021-12-09T07:58:17Z</time>
      </trkpt>
      <trkpt lat="43.29864" lon="2.42135">
        <ele>200.82421875</ele>
        <time>2021-12-09T07:58:28Z</time>
      </trkpt>
      <trkpt lat="43.29875" lon="2.42127">
        <ele>200.90625</ele>
        <time>2021-12-09T07:58:36Z</time>
      </trkpt>
      <trkpt lat="43.29889" lon="2.42113">
        <ele>201.62890625</ele>
        <time>2021-12-09T07:58:46Z</time>
      </trkpt>
      <trkpt lat="43.29908" lon="2.42077">
        <ele>206.328125</ele>
        <time>2021-12-09T07:59:07Z</time>
      </trkpt>
      <trkpt lat="43.29932" lon="2.42045">
        <ele>207.37109375</ele>
        <time>2021-12-09T07:59:23Z</time>
      </trkpt>
      <trkpt lat="43.29941" lon="2.42031">
        <ele>207.17578125</ele>
        <time>2021-12-09T07:59:29Z</time>
      </trkpt>
      <trkpt lat="43.2995" lon="2.41999">
        <ele>209.03515625</ele>
        <time>2021-12-09T07:59:38Z</time>
      </trkpt>
      <trkpt lat="43.29953" lon="2.41974">
        <ele>211.13671875</ele>
        <time>2021-12-09T07:59:49Z</time>
      </trkpt>
      <trkpt lat="43.2996" lon="2.41952">
        <ele>212.03515625</ele>
        <time>2021-12-09T08:00:00Z</time>
      </trkpt>
      <trkpt lat="43.29965" lon="2.41942">
        <ele>212.23046875</ele>
        <time>2021-12-09T08:00:05Z</time>
      </trkpt>
      <trkpt lat="43.29971" lon="2.41925">
        <ele>213.22265625</ele>
        <time>2021-12-09T08:00:11Z</time>
      </trkpt>
      <trkpt lat="43.29976" lon="2.41898">
        <ele>215.3046875</ele>
        <time>2021-12-09T08:00:19Z</time>
      </trkpt>
      <trkpt lat="43.2998" lon="2.41877">
        <ele>216.81640625</ele>
        <time>2021-12-09T08:00:26Z</time>
      </trkpt>
      <trkpt lat="43.29982" lon="2.41861">
        <ele>218.4765625</ele>
        <time>2021-12-09T08:00:30Z</time>
      </trkpt>
      <trkpt lat="43.29987" lon="2.41835">
        <ele>219.96875</ele>
        <time>2021-12-09T08:00:39Z</time>
      </trkpt>
      <trkpt lat="43.29991" lon="2.41822">
        <ele>220.359375</ele>
        <time>2021-12-09T08:00:46Z</time>
      </trkpt>
      <trkpt lat="43.29997" lon="2.41802">
        <ele>221.3359375</ele>
        <time>2021-12-09T08:00:53Z</time>
      </trkpt>
      <trkpt lat="43.30001" lon="2.41789">
        <ele>221.9375</ele>
        <time>2021-12-09T08:00:58Z</time>
      </trkpt>
      <trkpt lat="43.30003" lon="2.41775">
        <ele>223.3671875</ele>
        <time>2021-12-09T08:01:02Z</time>
      </trkpt>
      <trkpt lat="43.30007" lon="2.41764">
        <ele>224.33984375</ele>
        <time>2021-12-09T08:01:06Z</time>
      </trkpt>
      <trkpt lat="43.30013" lon="2.41749">
        <ele>226.00390625</ele>
        <time>2021-12-09T08:01:11Z</time>
      </trkpt>
      <trkpt lat="43.30029" lon="2.41727">
        <ele>227.7265625</ele>
        <time>2021-12-09T08:01:21Z</time>
      </trkpt>
      <trkpt lat="43.30041" lon="2.41721">
        <ele>225.3984375</ele>
        <time>2021-12-09T08:01:27Z</time>
      </trkpt>
      <trkpt lat="43.30047" lon="2.41706">
        <ele>226.2734375</ele>
        <time>2021-12-09T08:01:38Z</time>
      </trkpt>
      <trkpt lat="43.3005" lon="2.41689">
        <ele>228.2265625</ele>
        <time>2021-12-09T08:01:47Z</time>
      </trkpt>
      <trkpt lat="43.30063" lon="2.41666">
        <ele>228.921875</ele>
        <time>2021-12-09T08:02:01Z</time>
      </trkpt>
      <trkpt lat="43.30072" lon="2.41655">
        <ele>229.29296875</ele>
        <time>2021-12-09T08:02:08Z</time>
      </trkpt>
      <trkpt lat="43.3008" lon="2.41635">
        <ele>231.6171875</ele>
        <time>2021-12-09T08:02:19Z</time>
      </trkpt>
      <trkpt lat="43.3011" lon="2.41621">
        <ele>227.52734375</ele>
        <time>2021-12-09T08:02:31Z</time>
      </trkpt>
      <trkpt lat="43.30115" lon="2.41607">
        <ele>228.7109375</ele>
        <time>2021-12-09T08:02:42Z</time>
      </trkpt>
      <trkpt lat="43.30118" lon="2.41579">
        <ele>233.23046875</ele>
        <time>2021-12-09T08:02:56Z</time>
      </trkpt>
      <trkpt lat="43.30125" lon="2.41569">
        <ele>233.5859375</ele>
        <time>2021-12-09T08:03:03Z</time>
      </trkpt>
      <trkpt lat="43.3013" lon="2.4154">
        <ele>237.44921875</ele>
        <time>2021-12-09T08:03:18Z</time>
      </trkpt>
      <trkpt lat="43.30137" lon="2.41518">
        <ele>240.3359375</ele>
        <time>2021-12-09T08:03:28Z</time>
      </trkpt>
      <trkpt lat="43.30146" lon="2.41504">
        <ele>240.14453125</ele>
        <time>2021-12-09T08:03:39Z</time>
      </trkpt>
      <trkpt lat="43.30152" lon="2.41485">
        <ele>241.4375</ele>
        <time>2021-12-09T08:03:48Z</time>
      </trkpt>
      <trkpt lat="43.30161" lon="2.41475">
        <ele>241.32421875</ele>
        <time>2021-12-09T08:03:55Z</time>
      </trkpt>
      <trkpt lat="43.30176" lon="2.41443">
        <ele>243.46484375</ele>
        <time>2021-12-09T08:04:10Z</time>
      </trkpt>
      <trkpt lat="43.30184" lon="2.4143">
        <ele>244.4609375</ele>
        <time>2021-12-09T08:04:17Z</time>
      </trkpt>
      <trkpt lat="43.30194" lon="2.41418">
        <ele>245.51953125</ele>
        <time>2021-12-09T08:04:26Z</time>
      </trkpt>
      <trkpt lat="43.30203" lon="2.41401">
        <ele>245.9453125</ele>
        <time>2021-12-09T08:04:37Z</time>
      </trkpt>
      <trkpt lat="43.3021" lon="2.41383">
        <ele>246.48046875</ele>
        <time>2021-12-09T08:04:46Z</time>
      </trkpt>
      <trkpt lat="43.3023" lon="2.41358">
        <ele>246.79296875</ele>
        <time>2021-12-09T08:05:04Z</time>
      </trkpt>
      <trkpt lat="43.30238" lon="2.41329">
        <ele>249.37890625</ele>
        <time>2021-12-09T08:05:19Z</time>
      </trkpt>
      <trkpt lat="43.30241" lon="2.41317">
        <ele>250.58203125</ele>
        <time>2021-12-09T08:05:25Z</time>
      </trkpt>
      <trkpt lat="43.30255" lon="2.41294">
        <ele>252.46484375</ele>
        <time>2021-12-09T08:05:42Z</time>
      </trkpt>
      <trkpt lat="43.30269" lon="2.41276">
        <ele>252.25</ele>
        <time>2021-12-09T08:05:58Z</time>
      </trkpt>
      <trkpt lat="43.30283" lon="2.41261">
        <ele>252.375</ele>
        <time>2021-12-09T08:06:11Z</time>
      </trkpt>
      <trkpt lat="43.30289" lon="2.41246">
        <ele>253.8359375</ele>
        <time>2021-12-09T08:06:21Z</time>
      </trkpt>
      <trkpt lat="43.30304" lon="2.41232">
        <ele>254.20703125</ele>
        <time>2021-12-09T08:06:34Z</time>
      </trkpt>
      <trkpt lat="43.30313" lon="2.41212">
        <ele>255.14453125</ele>
        <time>2021-12-09T08:06:48Z</time>
      </trkpt>
      <trkpt lat="43.30317" lon="2.41199">
        <ele>256.18359375</ele>
        <time>2021-12-09T08:06:55Z</time>
      </trkpt>
      <trkpt lat="43.30328" lon="2.41177">
        <ele>256.953125</ele>
        <time>2021-12-09T08:07:11Z</time>
      </trkpt>
      <trkpt lat="43.30337" lon="2.41161">
        <ele>257.5390625</ele>
        <time>2021-12-09T08:07:22Z</time>
      </trkpt>
      <trkpt lat="43.30349" lon="2.41148">
        <ele>258.1875</ele>
        <time>2021-12-09T08:07:34Z</time>
      </trkpt>
      <trkpt lat="43.30358" lon="2.4113">
        <ele>260.1015625</ele>
        <time>2021-12-09T08:07:45Z</time>
      </trkpt>
      <trkpt lat="43.30365" lon="2.41111">
        <ele>261.1328125</ele>
        <time>2021-12-09T08:07:55Z</time>
      </trkpt>
      <trkpt lat="43.30371" lon="2.41096">
        <ele>262.02734375</ele>
        <time>2021-12-09T08:08:05Z</time>
      </trkpt>
      <trkpt lat="43.3037" lon="2.41073">
        <ele>263.83984375</ele>
        <time>2021-12-09T08:08:23Z</time>
      </trkpt>
      <trkpt lat="43.3038" lon="2.41052">
        <ele>264.0859375</ele>
        <time>2021-12-09T08:08:37Z</time>
      </trkpt>
      <trkpt lat="43.30394" lon="2.41033">
        <ele>265.36328125</ele>
        <time>2021-12-09T08:08:50Z</time>
      </trkpt>
      <trkpt lat="43.3041" lon="2.41017">
        <ele>267.39453125</ele>
        <time>2021-12-09T08:09:05Z</time>
      </trkpt>
      <trkpt lat="43.30421" lon="2.41008">
        <ele>268.12890625</ele>
        <time>2021-12-09T08:09:12Z</time>
      </trkpt>
      <trkpt lat="43.30431" lon="2.41001">
        <ele>268.16796875</ele>
        <time>2021-12-09T08:09:18Z</time>
      </trkpt>
      <trkpt lat="43.30439" lon="2.40985">
        <ele>268.83203125</ele>
        <time>2021-12-09T08:09:27Z</time>
      </trkpt>
      <trkpt lat="43.3045" lon="2.40963">
        <ele>270.1875</ele>
        <time>2021-12-09T08:09:36Z</time>
      </trkpt>
      <trkpt lat="43.30456" lon="2.40952">
        <ele>270.44140625</ele>
        <time>2021-12-09T08:09:42Z</time>
      </trkpt>
      <trkpt lat="43.30461" lon="2.4094">
        <ele>270.77734375</ele>
        <time>2021-12-09T08:09:50Z</time>
      </trkpt>
      <trkpt lat="43.30471" lon="2.40934">
        <ele>271.46875</ele>
        <time>2021-12-09T08:10:00Z</time>
      </trkpt>
      <trkpt lat="43.30481" lon="2.40924">
        <ele>271.8984375</ele>
        <time>2021-12-09T08:10:07Z</time>
      </trkpt>
      <trkpt lat="43.30486" lon="2.40912">
        <ele>272.37890625</ele>
        <time>2021-12-09T08:10:14Z</time>
      </trkpt>
      <trkpt lat="43.30492" lon="2.40902">
        <ele>272.59765625</ele>
        <time>2021-12-09T08:10:21Z</time>
      </trkpt>
      <trkpt lat="43.30496" lon="2.40886">
        <ele>272.546875</ele>
        <time>2021-12-09T08:10:26Z</time>
      </trkpt>
      <trkpt lat="43.30504" lon="2.40876">
        <ele>272.94140625</ele>
        <time>2021-12-09T08:10:33Z</time>
      </trkpt>
      <trkpt lat="43.30517" lon="2.40866">
        <ele>273.87890625</ele>
        <time>2021-12-09T08:10:41Z</time>
      </trkpt>
      <trkpt lat="43.30531" lon="2.40862">
        <ele>274.9140625</ele>
        <time>2021-12-09T08:10:49Z</time>
      </trkpt>
      <trkpt lat="43.30547" lon="2.40856">
        <ele>275.56640625</ele>
        <time>2021-12-09T08:10:59Z</time>
      </trkpt>
      <trkpt lat="43.30564" lon="2.40844">
        <ele>276.4375</ele>
        <time>2021-12-09T08:11:09Z</time>
      </trkpt>
      <trkpt lat="43.30586" lon="2.40833">
        <ele>277.80078125</ele>
        <time>2021-12-09T08:11:18Z</time>
      </trkpt>
      <trkpt lat="43.30608" lon="2.4082">
        <ele>278.8828125</ele>
        <time>2021-12-09T08:11:26Z</time>
      </trkpt>
      <trkpt lat="43.30612" lon="2.40799">
        <ele>279.96875</ele>
        <time>2021-12-09T08:11:34Z</time>
      </trkpt>
      <trkpt lat="43.3062" lon="2.40783">
        <ele>280.23828125</ele>
        <time>2021-12-09T08:11:41Z</time>
      </trkpt>
      <trkpt lat="43.30632" lon="2.40764">
        <ele>280.66015625</ele>
        <time>2021-12-09T08:11:50Z</time>
      </trkpt>
      <trkpt lat="43.3064" lon="2.40753">
        <ele>281.01953125</ele>
        <time>2021-12-09T08:11:57Z</time>
      </trkpt>
      <trkpt lat="43.30647" lon="2.4074">
        <ele>281.25390625</ele>
        <time>2021-12-09T08:12:10Z</time>
      </trkpt>
      <trkpt lat="43.30653" lon="2.4073">
        <ele>281.40625</ele>
        <time>2021-12-09T08:12:18Z</time>
      </trkpt>
      <trkpt lat="43.30658" lon="2.4071">
        <ele>281.484375</ele>
        <time>2021-12-09T08:12:25Z</time>
      </trkpt>
      <trkpt lat="43.30665" lon="2.40679">
        <ele>281.66796875</ele>
        <time>2021-12-09T08:12:35Z</time>
      </trkpt>
      <trkpt lat="43.30672" lon="2.40656">
        <ele>281.3984375</ele>
        <time>2021-12-09T08:12:43Z</time>
      </trkpt>
      <trkpt lat="43.30681" lon="2.40637">
        <ele>280.98828125</ele>
        <time>2021-12-09T08:12:49Z</time>
      </trkpt>
      <trkpt lat="43.30691" lon="2.40628">
        <ele>280.48046875</ele>
        <time>2021-12-09T08:12:55Z</time>
      </trkpt>
      <trkpt lat="43.307" lon="2.40625">
        <ele>280.39453125</ele>
        <time>2021-12-09T08:13:00Z</time>
      </trkpt>
      <trkpt lat="43.30715" lon="2.40617">
        <ele>280.48046875</ele>
        <time>2021-12-09T08:13:09Z</time>
      </trkpt>
      <trkpt lat="43.30725" lon="2.40613">
        <ele>280.5625</ele>
        <time>2021-12-09T08:13:15Z</time>
      </trkpt>
      <trkpt lat="43.30734" lon="2.40607">
        <ele>280.37890625</ele>
        <time>2021-12-09T08:13:21Z</time>
      </trkpt>
      <trkpt lat="43.30754" lon="2.40601">
        <ele>280.57421875</ele>
        <time>2021-12-09T08:13:31Z</time>
      </trkpt>
      <trkpt lat="43.30773" lon="2.40596">
        <ele>279.8046875</ele>
        <time>2021-12-09T08:13:41Z</time>
      </trkpt>
      <trkpt lat="43.30795" lon="2.40599">
        <ele>280.52734375</ele>
        <time>2021-12-09T08:13:50Z</time>
      </trkpt>
      <trkpt lat="43.30807" lon="2.406">
        <ele>280.828125</ele>
        <time>2021-12-09T08:13:55Z</time>
      </trkpt>
      <trkpt lat="43.30827" lon="2.40599">
        <ele>279.83203125</ele>
        <time>2021-12-09T08:14:04Z</time>
      </trkpt>
      <trkpt lat="43.30847" lon="2.40601">
        <ele>279.51171875</ele>
        <time>2021-12-09T08:14:12Z</time>
      </trkpt>
      <trkpt lat="43.30864" lon="2.40609">
        <ele>280.32421875</ele>
        <time>2021-12-09T08:14:20Z</time>
      </trkpt>
      <trkpt lat="43.30872" lon="2.40618">
        <ele>281.56640625</ele>
        <time>2021-12-09T08:14:25Z</time>
      </trkpt>
      <trkpt lat="43.30878" lon="2.40627">
        <ele>282.76171875</ele>
        <time>2021-12-09T08:14:30Z</time>
      </trkpt>
      <trkpt lat="43.30884" lon="2.40638">
        <ele>282.9375</ele>
        <time>2021-12-09T08:14:33Z</time>
      </trkpt>
      <trkpt lat="43.30893" lon="2.40656">
        <ele>282.17578125</ele>
        <time>2021-12-09T08:14:40Z</time>
      </trkpt>
      <trkpt lat="43.30903" lon="2.40671">
        <ele>281.62890625</ele>
        <time>2021-12-09T08:14:47Z</time>
      </trkpt>
      <trkpt lat="43.30912" lon="2.40679">
        <ele>281.140625</ele>
        <time>2021-12-09T08:14:52Z</time>
      </trkpt>
      <trkpt lat="43.30923" lon="2.40682">
        <ele>280.203125</ele>
        <time>2021-12-09T08:14:58Z</time>
      </trkpt>
      <trkpt lat="43.30933" lon="2.4068">
        <ele>278.96484375</ele>
        <time>2021-12-09T08:15:03Z</time>
      </trkpt>
      <trkpt lat="43.30949" lon="2.40688">
        <ele>277.59375</ele>
        <time>2021-12-09T08:15:11Z</time>
      </trkpt>
      <trkpt lat="43.30959" lon="2.40696">
        <ele>277.171875</ele>
        <time>2021-12-09T08:15:16Z</time>
      </trkpt>
      <trkpt lat="43.30969" lon="2.40707">
        <ele>277.35546875</ele>
        <time>2021-12-09T08:15:22Z</time>
      </trkpt>
      <trkpt lat="43.30977" lon="2.40714">
        <ele>277.3046875</ele>
        <time>2021-12-09T08:15:27Z</time>
      </trkpt>
      <trkpt lat="43.3099" lon="2.40724">
        <ele>277.125</ele>
        <time>2021-12-09T08:15:36Z</time>
      </trkpt>
      <trkpt lat="43.30999" lon="2.40729">
        <ele>276.875</ele>
        <time>2021-12-09T08:15:40Z</time>
      </trkpt>
      <trkpt lat="43.31013" lon="2.40732">
        <ele>276.13671875</ele>
        <time>2021-12-09T08:15:46Z</time>
      </trkpt>
      <trkpt lat="43.31025" lon="2.40734">
        <ele>275.5859375</ele>
        <time>2021-12-09T08:15:50Z</time>
      </trkpt>
      <trkpt lat="43.31046" lon="2.40738">
        <ele>274.82421875</ele>
        <time>2021-12-09T08:15:58Z</time>
      </trkpt>
      <trkpt lat="43.31056" lon="2.40738">
        <ele>274.20703125</ele>
        <time>2021-12-09T08:16:02Z</time>
      </trkpt>
      <trkpt lat="43.31073" lon="2.40738">
        <ele>272.90234375</ele>
        <time>2021-12-09T08:16:09Z</time>
      </trkpt>
      <trkpt lat="43.31082" lon="2.40735">
        <ele>271.79296875</ele>
        <time>2021-12-09T08:16:14Z</time>
      </trkpt>
      <trkpt lat="43.31092" lon="2.40731">
        <ele>271.0078125</ele>
        <time>2021-12-09T08:16:20Z</time>
      </trkpt>
      <trkpt lat="43.31106" lon="2.40725">
        <ele>269.94140625</ele>
        <time>2021-12-09T08:16:26Z</time>
      </trkpt>
      <trkpt lat="43.31116" lon="2.40721">
        <ele>269.203125</ele>
        <time>2021-12-09T08:16:30Z</time>
      </trkpt>
      <trkpt lat="43.31134" lon="2.40712">
        <ele>267.6015625</ele>
        <time>2021-12-09T08:16:38Z</time>
      </trkpt>
      <trkpt lat="43.31154" lon="2.407">
        <ele>265.83984375</ele>
        <time>2021-12-09T08:16:45Z</time>
      </trkpt>
      <trkpt lat="43.31167" lon="2.4069">
        <ele>264.5859375</ele>
        <time>2021-12-09T08:16:51Z</time>
      </trkpt>
      <trkpt lat="43.3118" lon="2.40681">
        <ele>263.59375</ele>
        <time>2021-12-09T08:16:58Z</time>
      </trkpt>
      <trkpt lat="43.31189" lon="2.40673">
        <ele>262.859375</ele>
        <time>2021-12-09T08:17:03Z</time>
      </trkpt>
      <trkpt lat="43.31207" lon="2.40669">
        <ele>262.2421875</ele>
        <time>2021-12-09T08:17:12Z</time>
      </trkpt>
      <trkpt lat="43.31224" lon="2.40668">
        <ele>261.94140625</ele>
        <time>2021-12-09T08:17:19Z</time>
      </trkpt>
      <trkpt lat="43.31235" lon="2.40672">
        <ele>262.28515625</ele>
        <time>2021-12-09T08:17:24Z</time>
      </trkpt>
      <trkpt lat="43.31244" lon="2.40677">
        <ele>262.8359375</ele>
        <time>2021-12-09T08:17:28Z</time>
      </trkpt>
      <trkpt lat="43.31264" lon="2.4069">
        <ele>263.6484375</ele>
        <time>2021-12-09T08:17:37Z</time>
      </trkpt>
      <trkpt lat="43.31284" lon="2.40705">
        <ele>264.109375</ele>
        <time>2021-12-09T08:17:46Z</time>
      </trkpt>
      <trkpt lat="43.31301" lon="2.40713">
        <ele>263.34375</ele>
        <time>2021-12-09T08:17:53Z</time>
      </trkpt>
      <trkpt lat="43.31319" lon="2.40716">
        <ele>262.72265625</ele>
        <time>2021-12-09T08:18:01Z</time>
      </trkpt>
      <trkpt lat="43.31339" lon="2.40718">
        <ele>262.234375</ele>
        <time>2021-12-09T08:18:09Z</time>
      </trkpt>
      <trkpt lat="43.31358" lon="2.40719">
        <ele>261.6640625</ele>
        <time>2021-12-09T08:18:16Z</time>
      </trkpt>
      <trkpt lat="43.31374" lon="2.40718">
        <ele>262.01953125</ele>
        <time>2021-12-09T08:18:23Z</time>
      </trkpt>
      <trkpt lat="43.31388" lon="2.40717">
        <ele>262.46484375</ele>
        <time>2021-12-09T08:18:29Z</time>
      </trkpt>
      <trkpt lat="43.31406" lon="2.40715">
        <ele>263.109375</ele>
        <time>2021-12-09T08:18:37Z</time>
      </trkpt>
      <trkpt lat="43.31426" lon="2.40715">
        <ele>263.40625</ele>
        <time>2021-12-09T08:18:45Z</time>
      </trkpt>
      <trkpt lat="43.31441" lon="2.40714">
        <ele>263.2890625</ele>
        <time>2021-12-09T08:18:52Z</time>
      </trkpt>
      <trkpt lat="43.31458" lon="2.40713">
        <ele>263.1328125</ele>
        <time>2021-12-09T08:18:59Z</time>
      </trkpt>
      <trkpt lat="43.31482" lon="2.40715">
        <ele>261.703125</ele>
        <time>2021-12-09T08:19:09Z</time>
      </trkpt>
      <trkpt lat="43.31501" lon="2.40715">
        <ele>259.328125</ele>
        <time>2021-12-09T08:19:17Z</time>
      </trkpt>
      <trkpt lat="43.3152" lon="2.40719">
        <ele>257.0625</ele>
        <time>2021-12-09T08:19:25Z</time>
      </trkpt>
      <trkpt lat="43.31538" lon="2.40722">
        <ele>255.1640625</ele>
        <time>2021-12-09T08:19:33Z</time>
      </trkpt>
      <trkpt lat="43.31554" lon="2.40726">
        <ele>253.73046875</ele>
        <time>2021-12-09T08:19:40Z</time>
      </trkpt>
      <trkpt lat="43.31567" lon="2.40731">
        <ele>252.76171875</ele>
        <time>2021-12-09T08:19:46Z</time>
      </trkpt>
      <trkpt lat="43.31582" lon="2.40736">
        <ele>251.6484375</ele>
        <time>2021-12-09T08:19:53Z</time>
      </trkpt>
      <trkpt lat="43.31598" lon="2.40743">
        <ele>250.95703125</ele>
        <time>2021-12-09T08:20:00Z</time>
      </trkpt>
      <trkpt lat="43.31612" lon="2.40746">
        <ele>250.18359375</ele>
        <time>2021-12-09T08:20:07Z</time>
      </trkpt>
      <trkpt lat="43.31633" lon="2.4075">
        <ele>248.703125</ele>
        <time>2021-12-09T08:20:14Z</time>
      </trkpt>
      <trkpt lat="43.31651" lon="2.40753">
        <ele>248.01171875</ele>
        <time>2021-12-09T08:20:20Z</time>
      </trkpt>
      <trkpt lat="43.31673" lon="2.40753">
        <ele>247.4140625</ele>
        <time>2021-12-09T08:20:28Z</time>
      </trkpt>
      <trkpt lat="43.31689" lon="2.40754">
        <ele>246.9453125</ele>
        <time>2021-12-09T08:20:35Z</time>
      </trkpt>
      <trkpt lat="43.31706" lon="2.40758">
        <ele>247.15234375</ele>
        <time>2021-12-09T08:20:43Z</time>
      </trkpt>
      <trkpt lat="43.31726" lon="2.40765">
        <ele>247.73828125</ele>
        <time>2021-12-09T08:20:52Z</time>
      </trkpt>
      <trkpt lat="43.31739" lon="2.40773">
        <ele>248.0625</ele>
        <time>2021-12-09T08:20:58Z</time>
      </trkpt>
      <trkpt lat="43.3175" lon="2.40781">
        <ele>248.3359375</ele>
        <time>2021-12-09T08:21:04Z</time>
      </trkpt>
      <trkpt lat="43.31761" lon="2.40789">
        <ele>248.75</ele>
        <time>2021-12-09T08:21:11Z</time>
      </trkpt>
      <trkpt lat="43.31772" lon="2.40795">
        <ele>249.25390625</ele>
        <time>2021-12-09T08:21:18Z</time>
      </trkpt>
      <trkpt lat="43.31787" lon="2.40803">
        <ele>249.92578125</ele>
        <time>2021-12-09T08:21:26Z</time>
      </trkpt>
      <trkpt lat="43.31799" lon="2.40809">
        <ele>250.4765625</ele>
        <time>2021-12-09T08:21:33Z</time>
      </trkpt>
      <trkpt lat="43.31815" lon="2.40812">
        <ele>251.30859375</ele>
        <time>2021-12-09T08:21:41Z</time>
      </trkpt>
      <trkpt lat="43.31831" lon="2.40818">
        <ele>252.2265625</ele>
        <time>2021-12-09T08:21:49Z</time>
      </trkpt>
      <trkpt lat="43.31856" lon="2.40824">
        <ele>253.68359375</ele>
        <time>2021-12-09T08:22:00Z</time>
      </trkpt>
      <trkpt lat="43.31869" lon="2.40827">
        <ele>254.4375</ele>
        <time>2021-12-09T08:22:07Z</time>
      </trkpt>
      <trkpt lat="43.31881" lon="2.4083">
        <ele>255.125</ele>
        <time>2021-12-09T08:22:14Z</time>
      </trkpt>
      <trkpt lat="43.31895" lon="2.40833">
        <ele>255.8515625</ele>
        <time>2021-12-09T08:22:21Z</time>
      </trkpt>
      <trkpt lat="43.3191" lon="2.40833">
        <ele>256.6796875</ele>
        <time>2021-12-09T08:22:28Z</time>
      </trkpt>
      <trkpt lat="43.31926" lon="2.40831">
        <ele>257.43359375</ele>
        <time>2021-12-09T08:22:35Z</time>
      </trkpt>
      <trkpt lat="43.31949" lon="2.4083">
        <ele>258.44921875</ele>
        <time>2021-12-09T08:22:45Z</time>
      </trkpt>
      <trkpt lat="43.31972" lon="2.40831">
        <ele>259.4140625</ele>
        <time>2021-12-09T08:22:54Z</time>
      </trkpt>
      <trkpt lat="43.31994" lon="2.40832">
        <ele>260.328125</ele>
        <time>2021-12-09T08:23:03Z</time>
      </trkpt>
      <trkpt lat="43.32015" lon="2.40833">
        <ele>261.22265625</ele>
        <time>2021-12-09T08:23:12Z</time>
      </trkpt>
      <trkpt lat="43.32034" lon="2.40831">
        <ele>262.06640625</ele>
        <time>2021-12-09T08:23:20Z</time>
      </trkpt>
      <trkpt lat="43.3205" lon="2.40824">
        <ele>263.1015625</ele>
        <time>2021-12-09T08:23:28Z</time>
      </trkpt>
      <trkpt lat="43.32067" lon="2.40809">
        <ele>264.61328125</ele>
        <time>2021-12-09T08:23:37Z</time>
      </trkpt>
      <trkpt lat="43.32077" lon="2.40796">
        <ele>265.73046875</ele>
        <time>2021-12-09T08:23:44Z</time>
      </trkpt>
      <trkpt lat="43.32092" lon="2.40777">
        <ele>267.44140625</ele>
        <time>2021-12-09T08:23:55Z</time>
      </trkpt>
      <trkpt lat="43.321" lon="2.40771">
        <ele>268.625</ele>
        <time>2021-12-09T08:24:03Z</time>
      </trkpt>
      <trkpt lat="43.32109" lon="2.40774">
        <ele>269.62109375</ele>
        <time>2021-12-09T08:24:11Z</time>
      </trkpt>
      <trkpt lat="43.32128" lon="2.40769">
        <ele>272.30859375</ele>
        <time>2021-12-09T08:24:23Z</time>
      </trkpt>
      <trkpt lat="43.32138" lon="2.40762">
        <ele>273.84375</ele>
        <time>2021-12-09T08:24:28Z</time>
      </trkpt>
      <trkpt lat="43.32145" lon="2.40754">
        <ele>275.15234375</ele>
        <time>2021-12-09T08:24:33Z</time>
      </trkpt>
      <trkpt lat="43.32152" lon="2.40743">
        <ele>276.69921875</ele>
        <time>2021-12-09T08:24:39Z</time>
      </trkpt>
      <trkpt lat="43.32161" lon="2.40733">
        <ele>277.91015625</ele>
        <time>2021-12-09T08:24:46Z</time>
      </trkpt>
      <trkpt lat="43.32181" lon="2.40728">
        <ele>280.40625</ele>
        <time>2021-12-09T08:24:59Z</time>
      </trkpt>
      <trkpt lat="43.32197" lon="2.40726">
        <ele>282.296875</ele>
        <time>2021-12-09T08:25:08Z</time>
      </trkpt>
      <trkpt lat="43.32219" lon="2.40721">
        <ele>284.2578125</ele>
        <time>2021-12-09T08:25:19Z</time>
      </trkpt>
      <trkpt lat="43.32232" lon="2.40715">
        <ele>285.73046875</ele>
        <time>2021-12-09T08:25:27Z</time>
      </trkpt>
      <trkpt lat="43.32245" lon="2.40705">
        <ele>287.87109375</ele>
        <time>2021-12-09T08:25:35Z</time>
      </trkpt>
      <trkpt lat="43.32258" lon="2.40694">
        <ele>289.60546875</ele>
        <time>2021-12-09T08:25:42Z</time>
      </trkpt>
      <trkpt lat="43.32271" lon="2.40679">
        <ele>290.74609375</ele>
        <time>2021-12-09T08:25:50Z</time>
      </trkpt>
      <trkpt lat="43.32282" lon="2.4066">
        <ele>292.20703125</ele>
        <time>2021-12-09T08:25:59Z</time>
      </trkpt>
      <trkpt lat="43.32295" lon="2.40648">
        <ele>293.81640625</ele>
        <time>2021-12-09T08:26:07Z</time>
      </trkpt>
      <trkpt lat="43.32307" lon="2.40634">
        <ele>295.7890625</ele>
        <time>2021-12-09T08:26:15Z</time>
      </trkpt>
      <trkpt lat="43.32316" lon="2.40632">
        <ele>296.3046875</ele>
        <time>2021-12-09T08:26:21Z</time>
      </trkpt>
      <trkpt lat="43.32327" lon="2.40643">
        <ele>296.109375</ele>
        <time>2021-12-09T08:26:28Z</time>
      </trkpt>
      <trkpt lat="43.32335" lon="2.40655">
        <ele>295.88671875</ele>
        <time>2021-12-09T08:26:35Z</time>
      </trkpt>
      <trkpt lat="43.32346" lon="2.40681">
        <ele>295.703125</ele>
        <time>2021-12-09T08:26:49Z</time>
      </trkpt>
      <trkpt lat="43.32353" lon="2.40695">
        <ele>296.29296875</ele>
        <time>2021-12-09T08:26:57Z</time>
      </trkpt>
      <trkpt lat="43.32364" lon="2.40711">
        <ele>297.9609375</ele>
        <time>2021-12-09T08:27:05Z</time>
      </trkpt>
      <trkpt lat="43.32378" lon="2.40711">
        <ele>299.60546875</ele>
        <time>2021-12-09T08:27:13Z</time>
      </trkpt>
      <trkpt lat="43.32393" lon="2.40699">
        <ele>301.34765625</ele>
        <time>2021-12-09T08:27:23Z</time>
      </trkpt>
      <trkpt lat="43.32403" lon="2.40692">
        <ele>302.51953125</ele>
        <time>2021-12-09T08:27:28Z</time>
      </trkpt>
      <trkpt lat="43.32412" lon="2.40686">
        <ele>303.484375</ele>
        <time>2021-12-09T08:27:32Z</time>
      </trkpt>
      <trkpt lat="43.32435" lon="2.40672">
        <ele>305.74609375</ele>
        <time>2021-12-09T08:27:42Z</time>
      </trkpt>
      <trkpt lat="43.32452" lon="2.40661">
        <ele>307.2265625</ele>
        <time>2021-12-09T08:27:50Z</time>
      </trkpt>
      <trkpt lat="43.32476" lon="2.40642">
        <ele>309.3515625</ele>
        <time>2021-12-09T08:28:02Z</time>
      </trkpt>
      <trkpt lat="43.32486" lon="2.40634">
        <ele>310.05078125</ele>
        <time>2021-12-09T08:28:07Z</time>
      </trkpt>
      <trkpt lat="43.32506" lon="2.40621">
        <ele>311.578125</ele>
        <time>2021-12-09T08:28:17Z</time>
      </trkpt>
      <trkpt lat="43.32522" lon="2.4061">
        <ele>313.0234375</ele>
        <time>2021-12-09T08:28:25Z</time>
      </trkpt>
      <trkpt lat="43.32533" lon="2.40603">
        <ele>314.1328125</ele>
        <time>2021-12-09T08:28:31Z</time>
      </trkpt>
      <trkpt lat="43.32542" lon="2.40598">
        <ele>315.1953125</ele>
        <time>2021-12-09T08:28:36Z</time>
      </trkpt>
      <trkpt lat="43.32554" lon="2.40589">
        <ele>316.640625</ele>
        <time>2021-12-09T08:28:44Z</time>
      </trkpt>
      <trkpt lat="43.32562" lon="2.40584">
        <ele>317.68359375</ele>
        <time>2021-12-09T08:28:49Z</time>
      </trkpt>
      <trkpt lat="43.32571" lon="2.40577">
        <ele>318.6875</ele>
        <time>2021-12-09T08:28:54Z</time>
      </trkpt>
      <trkpt lat="43.32581" lon="2.40569">
        <ele>320.0078125</ele>
        <time>2021-12-09T08:29:01Z</time>
      </trkpt>
      <trkpt lat="43.32605" lon="2.40561">
        <ele>322.59765625</ele>
        <time>2021-12-09T08:29:12Z</time>
      </trkpt>
      <trkpt lat="43.3262" lon="2.40555">
        <ele>324.21484375</ele>
        <time>2021-12-09T08:29:20Z</time>
      </trkpt>
      <trkpt lat="43.32629" lon="2.40552">
        <ele>325.12109375</ele>
        <time>2021-12-09T08:29:25Z</time>
      </trkpt>
      <trkpt lat="43.32649" lon="2.40545">
        <ele>327.14453125</ele>
        <time>2021-12-09T08:29:37Z</time>
      </trkpt>
      <trkpt lat="43.32661" lon="2.4054">
        <ele>328.484375</ele>
        <time>2021-12-09T08:29:46Z</time>
      </trkpt>
      <trkpt lat="43.32672" lon="2.40537">
        <ele>329.66015625</ele>
        <time>2021-12-09T08:29:52Z</time>
      </trkpt>
      <trkpt lat="43.32682" lon="2.40534">
        <ele>330.71484375</ele>
        <time>2021-12-09T08:29:57Z</time>
      </trkpt>
      <trkpt lat="43.32707" lon="2.40527">
        <ele>332.95703125</ele>
        <time>2021-12-09T08:30:09Z</time>
      </trkpt>
      <trkpt lat="43.32721" lon="2.40522">
        <ele>333.98046875</ele>
        <time>2021-12-09T08:30:16Z</time>
      </trkpt>
      <trkpt lat="43.32742" lon="2.40517">
        <ele>335.33203125</ele>
        <time>2021-12-09T08:30:26Z</time>
      </trkpt>
      <trkpt lat="43.32759" lon="2.40512">
        <ele>336.16015625</ele>
        <time>2021-12-09T08:30:33Z</time>
      </trkpt>
      <trkpt lat="43.32775" lon="2.40507">
        <ele>336.9296875</ele>
        <time>2021-12-09T08:30:40Z</time>
      </trkpt>
      <trkpt lat="43.32797" lon="2.405">
        <ele>338.1484375</ele>
        <time>2021-12-09T08:30:49Z</time>
      </trkpt>
      <trkpt lat="43.32816" lon="2.40497">
        <ele>339.37890625</ele>
        <time>2021-12-09T08:30:56Z</time>
      </trkpt>
      <trkpt lat="43.32833" lon="2.40496">
        <ele>340.5234375</ele>
        <time>2021-12-09T08:31:03Z</time>
      </trkpt>
      <trkpt lat="43.3285" lon="2.40499">
        <ele>341.6875</ele>
        <time>2021-12-09T08:31:11Z</time>
      </trkpt>
      <trkpt lat="43.32866" lon="2.40502">
        <ele>343.0078125</ele>
        <time>2021-12-09T08:31:19Z</time>
      </trkpt>
      <trkpt lat="43.32879" lon="2.40504">
        <ele>344.3671875</ele>
        <time>2021-12-09T08:31:26Z</time>
      </trkpt>
      <trkpt lat="43.32893" lon="2.40508">
        <ele>345.796875</ele>
        <time>2021-12-09T08:31:33Z</time>
      </trkpt>
      <trkpt lat="43.32903" lon="2.40509">
        <ele>346.8359375</ele>
        <time>2021-12-09T08:31:38Z</time>
      </trkpt>
      <trkpt lat="43.32912" lon="2.40512">
        <ele>347.7578125</ele>
        <time>2021-12-09T08:31:42Z</time>
      </trkpt>
      <trkpt lat="43.32925" lon="2.40516">
        <ele>349.21875</ele>
        <time>2021-12-09T08:31:49Z</time>
      </trkpt>
      <trkpt lat="43.32944" lon="2.40523">
        <ele>351.52734375</ele>
        <time>2021-12-09T08:32:00Z</time>
      </trkpt>
      <trkpt lat="43.32957" lon="2.40528">
        <ele>353.234375</ele>
        <time>2021-12-09T08:32:08Z</time>
      </trkpt>
      <trkpt lat="43.32971" lon="2.40533">
        <ele>354.953125</ele>
        <time>2021-12-09T08:32:17Z</time>
      </trkpt>
      <trkpt lat="43.32983" lon="2.40536">
        <ele>356.09375</ele>
        <time>2021-12-09T08:32:24Z</time>
      </trkpt>
      <trkpt lat="43.33003" lon="2.40537">
        <ele>357.90234375</ele>
        <time>2021-12-09T08:32:33Z</time>
      </trkpt>
      <trkpt lat="43.33019" lon="2.40536">
        <ele>359.31640625</ele>
        <time>2021-12-09T08:32:41Z</time>
      </trkpt>
      <trkpt lat="43.33035" lon="2.40533">
        <ele>360.33984375</ele>
        <time>2021-12-09T08:32:49Z</time>
      </trkpt>
      <trkpt lat="43.3306" lon="2.40524">
        <ele>361.25390625</ele>
        <time>2021-12-09T08:33:01Z</time>
      </trkpt>
      <trkpt lat="43.3308" lon="2.40515">
        <ele>361.91015625</ele>
        <time>2021-12-09T08:33:10Z</time>
      </trkpt>
      <trkpt lat="43.33097" lon="2.40507">
        <ele>361.65625</ele>
        <time>2021-12-09T08:33:18Z</time>
      </trkpt>
      <trkpt lat="43.33113" lon="2.40501">
        <ele>361.24609375</ele>
        <time>2021-12-09T08:33:25Z</time>
      </trkpt>
      <trkpt lat="43.33134" lon="2.40492">
        <ele>360.60546875</ele>
        <time>2021-12-09T08:33:33Z</time>
      </trkpt>
      <trkpt lat="43.33154" lon="2.40483">
        <ele>359.0390625</ele>
        <time>2021-12-09T08:33:41Z</time>
      </trkpt>
      <trkpt lat="43.33172" lon="2.40474">
        <ele>357.25390625</ele>
        <time>2021-12-09T08:33:49Z</time>
      </trkpt>
      <trkpt lat="43.33197" lon="2.40453">
        <ele>354.43359375</ele>
        <time>2021-12-09T08:34:00Z</time>
      </trkpt>
      <trkpt lat="43.33215" lon="2.40438">
        <ele>353.75390625</ele>
        <time>2021-12-09T08:34:07Z</time>
      </trkpt>
      <trkpt lat="43.33231" lon="2.40419">
        <ele>352.6484375</ele>
        <time>2021-12-09T08:34:15Z</time>
      </trkpt>
      <trkpt lat="43.33246" lon="2.40399">
        <ele>351.8046875</ele>
        <time>2021-12-09T08:34:23Z</time>
      </trkpt>
      <trkpt lat="43.33254" lon="2.40389">
        <ele>352.109375</ele>
        <time>2021-12-09T08:34:28Z</time>
      </trkpt>
      <trkpt lat="43.3326" lon="2.4038">
        <ele>352.60546875</ele>
        <time>2021-12-09T08:34:32Z</time>
      </trkpt>
      <trkpt lat="43.33274" lon="2.40365">
        <ele>353.80859375</ele>
        <time>2021-12-09T08:34:39Z</time>
      </trkpt>
      <trkpt lat="43.33283" lon="2.40352">
        <ele>354.75390625</ele>
        <time>2021-12-09T08:34:45Z</time>
      </trkpt>
      <trkpt lat="43.33289" lon="2.40342">
        <ele>355.3515625</ele>
        <time>2021-12-09T08:34:50Z</time>
      </trkpt>
      <trkpt lat="43.33295" lon="2.40333">
        <ele>356.0078125</ele>
        <time>2021-12-09T08:34:55Z</time>
      </trkpt>
      <trkpt lat="43.33301" lon="2.40323">
        <ele>356.67578125</ele>
        <time>2021-12-09T08:35:00Z</time>
      </trkpt>
      <trkpt lat="43.33317" lon="2.40305">
        <ele>357.91015625</ele>
        <time>2021-12-09T08:35:10Z</time>
      </trkpt>
      <trkpt lat="43.33338" lon="2.40291">
        <ele>359.63671875</ele>
        <time>2021-12-09T08:35:18Z</time>
      </trkpt>
      <trkpt lat="43.33353" lon="2.40278">
        <ele>361.17578125</ele>
        <time>2021-12-09T08:35:26Z</time>
      </trkpt>
      <trkpt lat="43.33362" lon="2.40267">
        <ele>362.2578125</ele>
        <time>2021-12-09T08:35:32Z</time>
      </trkpt>
      <trkpt lat="43.33373" lon="2.40258">
        <ele>363.26953125</ele>
        <time>2021-12-09T08:35:39Z</time>
      </trkpt>
      <trkpt lat="43.33381" lon="2.40248">
        <ele>363.984375</ele>
        <time>2021-12-09T08:35:50Z</time>
      </trkpt>
      <trkpt lat="43.33389" lon="2.40238">
        <ele>364.74609375</ele>
        <time>2021-12-09T08:36:00Z</time>
      </trkpt>
      <trkpt lat="43.33399" lon="2.4022">
        <ele>365.93359375</ele>
        <time>2021-12-09T08:36:16Z</time>
      </trkpt>
      <trkpt lat="43.33404" lon="2.40227">
        <ele>365.9140625</ele>
        <time>2021-12-09T08:36:32Z</time>
      </trkpt>
      <trkpt lat="43.33403" lon="2.40253">
        <ele>365.10546875</ele>
        <time>2021-12-09T08:37:03Z</time>
      </trkpt>
      <trkpt lat="43.33401" lon="2.40272">
        <ele>364.55078125</ele>
        <time>2021-12-09T08:37:10Z</time>
      </trkpt>
      <trkpt lat="43.33399" lon="2.40305">
        <ele>363.8359375</ele>
        <time>2021-12-09T08:37:22Z</time>
      </trkpt>
      <trkpt lat="43.33401" lon="2.40329">
        <ele>363.98828125</ele>
        <time>2021-12-09T08:37:30Z</time>
      </trkpt>
      <trkpt lat="43.334" lon="2.40351">
        <ele>363.89453125</ele>
        <time>2021-12-09T08:37:38Z</time>
      </trkpt>
      <trkpt lat="43.334" lon="2.40374">
        <ele>363.9140625</ele>
        <time>2021-12-09T08:37:45Z</time>
      </trkpt>
      <trkpt lat="43.33401" lon="2.40401">
        <ele>363.98828125</ele>
        <time>2021-12-09T08:37:54Z</time>
      </trkpt>
      <trkpt lat="43.33405" lon="2.40427">
        <ele>364.28125</ele>
        <time>2021-12-09T08:38:01Z</time>
      </trkpt>
      <trkpt lat="43.33412" lon="2.40449">
        <ele>364.78515625</ele>
        <time>2021-12-09T08:38:08Z</time>
      </trkpt>
      <trkpt lat="43.33425" lon="2.40455">
        <ele>365.6953125</ele>
        <time>2021-12-09T08:38:15Z</time>
      </trkpt>
      <trkpt lat="43.33434" lon="2.40455">
        <ele>366.31640625</ele>
        <time>2021-12-09T08:38:20Z</time>
      </trkpt>
      <trkpt lat="43.3345" lon="2.40454">
        <ele>367.40234375</ele>
        <time>2021-12-09T08:38:28Z</time>
      </trkpt>
      <trkpt lat="43.3346" lon="2.40451">
        <ele>367.9921875</ele>
        <time>2021-12-09T08:38:34Z</time>
      </trkpt>
      <trkpt lat="43.33469" lon="2.40448">
        <ele>368.54296875</ele>
        <time>2021-12-09T08:38:39Z</time>
      </trkpt>
      <trkpt lat="43.33474" lon="2.40436">
        <ele>368.828125</ele>
        <time>2021-12-09T08:38:47Z</time>
      </trkpt>
      <trkpt lat="43.33481" lon="2.40419">
        <ele>369.296875</ele>
        <time>2021-12-09T08:38:55Z</time>
      </trkpt>
      <trkpt lat="43.33484" lon="2.40394">
        <ele>369.25390625</ele>
        <time>2021-12-09T08:39:04Z</time>
      </trkpt>
      <trkpt lat="43.33485" lon="2.40377">
        <ele>369.1015625</ele>
        <time>2021-12-09T08:39:09Z</time>
      </trkpt>
      <trkpt lat="43.33489" lon="2.40365">
        <ele>369.19921875</ele>
        <time>2021-12-09T08:39:14Z</time>
      </trkpt>
      <trkpt lat="43.33498" lon="2.40359">
        <ele>369.5859375</ele>
        <time>2021-12-09T08:39:22Z</time>
      </trkpt>
      <trkpt lat="43.33516" lon="2.40351">
        <ele>370.234375</ele>
        <time>2021-12-09T08:39:34Z</time>
      </trkpt>
      <trkpt lat="43.33535" lon="2.40346">
        <ele>370.88671875</ele>
        <time>2021-12-09T08:39:43Z</time>
      </trkpt>
      <trkpt lat="43.33549" lon="2.40346">
        <ele>371.80859375</ele>
        <time>2021-12-09T08:39:50Z</time>
      </trkpt>
      <trkpt lat="43.33557" lon="2.40342">
        <ele>371.85546875</ele>
        <time>2021-12-09T08:39:56Z</time>
      </trkpt>
      <trkpt lat="43.33567" lon="2.40344">
        <ele>372.6796875</ele>
        <time>2021-12-09T08:40:01Z</time>
      </trkpt>
      <trkpt lat="43.33579" lon="2.40359">
        <ele>375.23828125</ele>
        <time>2021-12-09T08:40:12Z</time>
      </trkpt>
      <trkpt lat="43.33588" lon="2.40368">
        <ele>375.36328125</ele>
        <time>2021-12-09T08:40:19Z</time>
      </trkpt>
      <trkpt lat="43.33597" lon="2.40377">
        <ele>375.11328125</ele>
        <time>2021-12-09T08:40:26Z</time>
      </trkpt>
      <trkpt lat="43.33605" lon="2.40399">
        <ele>375.765625</ele>
        <time>2021-12-09T08:40:35Z</time>
      </trkpt>
      <trkpt lat="43.3361" lon="2.40416">
        <ele>376.6015625</ele>
        <time>2021-12-09T08:40:42Z</time>
      </trkpt>
      <trkpt lat="43.33618" lon="2.40431">
        <ele>377.453125</ele>
        <time>2021-12-09T08:40:48Z</time>
      </trkpt>
      <trkpt lat="43.33628" lon="2.40454">
        <ele>379.703125</ele>
        <time>2021-12-09T08:40:59Z</time>
      </trkpt>
      <trkpt lat="43.33632" lon="2.40474">
        <ele>382.11328125</ele>
        <time>2021-12-09T08:41:10Z</time>
      </trkpt>
      <trkpt lat="43.33644" lon="2.40491">
        <ele>383.49609375</ele>
        <time>2021-12-09T08:41:21Z</time>
      </trkpt>
      <trkpt lat="43.3365" lon="2.40501">
        <ele>384.35546875</ele>
        <time>2021-12-09T08:41:28Z</time>
      </trkpt>
      <trkpt lat="43.33656" lon="2.40511">
        <ele>385.7265625</ele>
        <time>2021-12-09T08:41:33Z</time>
      </trkpt>
      <trkpt lat="43.33666" lon="2.40516">
        <ele>386.0390625</ele>
        <time>2021-12-09T08:41:43Z</time>
      </trkpt>
      <trkpt lat="43.33674" lon="2.40521">
        <ele>386.7890625</ele>
        <time>2021-12-09T08:41:48Z</time>
      </trkpt>
      <trkpt lat="43.33689" lon="2.40531">
        <ele>387.25</ele>
        <time>2021-12-09T08:41:57Z</time>
      </trkpt>
      <trkpt lat="43.33697" lon="2.40542">
        <ele>387.81640625</ele>
        <time>2021-12-09T08:42:04Z</time>
      </trkpt>
      <trkpt lat="43.33703" lon="2.40554">
        <ele>388.32421875</ele>
        <time>2021-12-09T08:42:20Z</time>
      </trkpt>
      <trkpt lat="43.33715" lon="2.40562">
        <ele>387.91015625</ele>
        <time>2021-12-09T08:42:34Z</time>
      </trkpt>
      <trkpt lat="43.33712" lon="2.40574">
        <ele>389.97265625</ele>
        <time>2021-12-09T08:42:49Z</time>
      </trkpt>
      <trkpt lat="43.33717" lon="2.40587">
        <ele>390.9140625</ele>
        <time>2021-12-09T08:42:58Z</time>
      </trkpt>
      <trkpt lat="43.33722" lon="2.40608">
        <ele>392.68359375</ele>
        <time>2021-12-09T08:43:08Z</time>
      </trkpt>
      <trkpt lat="43.33727" lon="2.40622">
        <ele>393.96875</ele>
        <time>2021-12-09T08:43:13Z</time>
      </trkpt>
      <trkpt lat="43.33731" lon="2.4064">
        <ele>395.484375</ele>
        <time>2021-12-09T08:43:21Z</time>
      </trkpt>
      <trkpt lat="43.33736" lon="2.4065">
        <ele>396.12109375</ele>
        <time>2021-12-09T08:43:27Z</time>
      </trkpt>
      <trkpt lat="43.33751" lon="2.40658">
        <ele>396.64453125</ele>
        <time>2021-12-09T08:43:41Z</time>
      </trkpt>
      <trkpt lat="43.33758" lon="2.40667">
        <ele>396.8984375</ele>
        <time>2021-12-09T08:43:49Z</time>
      </trkpt>
      <trkpt lat="43.33765" lon="2.40676">
        <ele>397.140625</ele>
        <time>2021-12-09T08:43:54Z</time>
      </trkpt>
      <trkpt lat="43.3377" lon="2.40686">
        <ele>397.80078125</ele>
        <time>2021-12-09T08:43:58Z</time>
      </trkpt>
      <trkpt lat="43.33773" lon="2.40703">
        <ele>398.53515625</ele>
        <time>2021-12-09T08:44:05Z</time>
      </trkpt>
      <trkpt lat="43.3378" lon="2.40726">
        <ele>399.53515625</ele>
        <time>2021-12-09T08:44:12Z</time>
      </trkpt>
      <trkpt lat="43.33785" lon="2.40746">
        <ele>400.5</ele>
        <time>2021-12-09T08:44:18Z</time>
      </trkpt>
      <trkpt lat="43.33792" lon="2.40756">
        <ele>400.7890625</ele>
        <time>2021-12-09T08:44:23Z</time>
      </trkpt>
      <trkpt lat="43.33806" lon="2.40762">
        <ele>401.0078125</ele>
        <time>2021-12-09T08:44:31Z</time>
      </trkpt>
      <trkpt lat="43.33824" lon="2.40765">
        <ele>400.8515625</ele>
        <time>2021-12-09T08:44:40Z</time>
      </trkpt>
      <trkpt lat="43.33834" lon="2.40763">
        <ele>400.5078125</ele>
        <time>2021-12-09T08:44:44Z</time>
      </trkpt>
      <trkpt lat="43.33851" lon="2.40755">
        <ele>399.17578125</ele>
        <time>2021-12-09T08:44:55Z</time>
      </trkpt>
      <trkpt lat="43.33864" lon="2.40746">
        <ele>398.0625</ele>
        <time>2021-12-09T08:45:05Z</time>
      </trkpt>
      <trkpt lat="43.33879" lon="2.40741">
        <ele>398.79296875</ele>
        <time>2021-12-09T08:45:14Z</time>
      </trkpt>
      <trkpt lat="43.33891" lon="2.4074">
        <ele>400.0234375</ele>
        <time>2021-12-09T08:45:22Z</time>
      </trkpt>
      <trkpt lat="43.33922" lon="2.40742">
        <ele>402.98046875</ele>
        <time>2021-12-09T08:45:31Z</time>
      </trkpt>
      <trkpt lat="43.33934" lon="2.4075">
        <ele>404.14453125</ele>
        <time>2021-12-09T08:45:37Z</time>
      </trkpt>
      <trkpt lat="43.33941" lon="2.40758">
        <ele>405.4453125</ele>
        <time>2021-12-09T08:45:44Z</time>
      </trkpt>
      <trkpt lat="43.33968" lon="2.40756">
        <ele>405.26171875</ele>
        <time>2021-12-09T08:45:57Z</time>
      </trkpt>
      <trkpt lat="43.33979" lon="2.40752">
        <ele>404.21484375</ele>
        <time>2021-12-09T08:46:01Z</time>
      </trkpt>
      <trkpt lat="43.33989" lon="2.40747">
        <ele>402.921875</ele>
        <time>2021-12-09T08:46:05Z</time>
      </trkpt>
      <trkpt lat="43.33998" lon="2.40743">
        <ele>401.71875</ele>
        <time>2021-12-09T08:46:09Z</time>
      </trkpt>
      <trkpt lat="43.3402" lon="2.40748">
        <ele>401.46484375</ele>
        <time>2021-12-09T08:46:17Z</time>
      </trkpt>
      <trkpt lat="43.34036" lon="2.40765">
        <ele>403.515625</ele>
        <time>2021-12-09T08:46:35Z</time>
      </trkpt>
      <trkpt lat="43.34039" lon="2.40779">
        <ele>406.16015625</ele>
        <time>2021-12-09T08:46:45Z</time>
      </trkpt>
      <trkpt lat="43.34043" lon="2.40801">
        <ele>410.12109375</ele>
        <time>2021-12-09T08:47:02Z</time>
      </trkpt>
      <trkpt lat="43.34045" lon="2.40818">
        <ele>412.4765625</ele>
        <time>2021-12-09T08:47:13Z</time>
      </trkpt>
      <trkpt lat="43.34047" lon="2.40836">
        <ele>415.08984375</ele>
        <time>2021-12-09T08:47:26Z</time>
      </trkpt>
      <trkpt lat="43.34049" lon="2.40853">
        <ele>417.375</ele>
        <time>2021-12-09T08:47:37Z</time>
      </trkpt>
      <trkpt lat="43.34046" lon="2.40866">
        <ele>419.3984375</ele>
        <time>2021-12-09T08:47:48Z</time>
      </trkpt>
      <trkpt lat="43.34043" lon="2.4088">
        <ele>421.27734375</ele>
        <time>2021-12-09T08:47:58Z</time>
      </trkpt>
      <trkpt lat="43.3404" lon="2.40903">
        <ele>424.05859375</ele>
        <time>2021-12-09T08:48:09Z</time>
      </trkpt>
      <trkpt lat="43.34048" lon="2.4092">
        <ele>424.484375</ele>
        <time>2021-12-09T08:48:18Z</time>
      </trkpt>
      <trkpt lat="43.34054" lon="2.40934">
        <ele>424.6015625</ele>
        <time>2021-12-09T08:48:24Z</time>
      </trkpt>
      <trkpt lat="43.34062" lon="2.40953">
        <ele>425.078125</ele>
        <time>2021-12-09T08:48:32Z</time>
      </trkpt>
      <trkpt lat="43.34074" lon="2.40972">
        <ele>425.49609375</ele>
        <time>2021-12-09T08:48:39Z</time>
      </trkpt>
      <trkpt lat="43.34085" lon="2.4099">
        <ele>425.21875</ele>
        <time>2021-12-09T08:48:46Z</time>
      </trkpt>
      <trkpt lat="43.34094" lon="2.41011">
        <ele>424.8515625</ele>
        <time>2021-12-09T08:48:53Z</time>
      </trkpt>
      <trkpt lat="43.34096" lon="2.41034">
        <ele>425.4609375</ele>
        <time>2021-12-09T08:49:05Z</time>
      </trkpt>
      <trkpt lat="43.34099" lon="2.41056">
        <ele>425.57421875</ele>
        <time>2021-12-09T08:49:13Z</time>
      </trkpt>
      <trkpt lat="43.34107" lon="2.41071">
        <ele>425.50390625</ele>
        <time>2021-12-09T08:49:22Z</time>
      </trkpt>
      <trkpt lat="43.34118" lon="2.41087">
        <ele>425.62890625</ele>
        <time>2021-12-09T08:49:33Z</time>
      </trkpt>
      <trkpt lat="43.3413" lon="2.41091">
        <ele>425.39453125</ele>
        <time>2021-12-09T08:49:42Z</time>
      </trkpt>
      <trkpt lat="43.34137" lon="2.41075">
        <ele>423.953125</ele>
        <time>2021-12-09T08:49:52Z</time>
      </trkpt>
      <trkpt lat="43.34141" lon="2.41056">
        <ele>422.90625</ele>
        <time>2021-12-09T08:50:12Z</time>
      </trkpt>
      <trkpt lat="43.34135" lon="2.41044">
        <ele>421.8828125</ele>
        <time>2021-12-09T08:50:16Z</time>
      </trkpt>
      <trkpt lat="43.34146" lon="2.41028">
        <ele>421.13671875</ele>
        <time>2021-12-09T08:50:22Z</time>
      </trkpt>
      <trkpt lat="43.34154" lon="2.4102">
        <ele>420.9453125</ele>
        <time>2021-12-09T08:50:28Z</time>
      </trkpt>
      <trkpt lat="43.34158" lon="2.41006">
        <ele>418.8203125</ele>
        <time>2021-12-09T08:50:35Z</time>
      </trkpt>
      <trkpt lat="43.34155" lon="2.40981">
        <ele>414.6015625</ele>
        <time>2021-12-09T08:50:52Z</time>
      </trkpt>
      <trkpt lat="43.34161" lon="2.40961">
        <ele>411.8046875</ele>
        <time>2021-12-09T08:50:58Z</time>
      </trkpt>
      <trkpt lat="43.34162" lon="2.40945">
        <ele>409.125</ele>
        <time>2021-12-09T08:51:10Z</time>
      </trkpt>
      <trkpt lat="43.34165" lon="2.40926">
        <ele>405.921875</ele>
        <time>2021-12-09T08:51:23Z</time>
      </trkpt>
      <trkpt lat="43.34163" lon="2.40906">
        <ele>402.35546875</ele>
        <time>2021-12-09T08:51:27Z</time>
      </trkpt>
      <trkpt lat="43.34171" lon="2.40889">
        <ele>398.22265625</ele>
        <time>2021-12-09T08:51:37Z</time>
      </trkpt>
      <trkpt lat="43.34174" lon="2.40858">
        <ele>390.54296875</ele>
        <time>2021-12-09T08:51:54Z</time>
      </trkpt>
      <trkpt lat="43.34178" lon="2.40846">
        <ele>386.5390625</ele>
        <time>2021-12-09T08:52:04Z</time>
      </trkpt>
      <trkpt lat="43.34187" lon="2.40837">
        <ele>382.1875</ele>
        <time>2021-12-09T08:52:15Z</time>
      </trkpt>
      <trkpt lat="43.3419" lon="2.40821">
        <ele>375.8359375</ele>
        <time>2021-12-09T08:52:25Z</time>
      </trkpt>
      <trkpt lat="43.34203" lon="2.40806">
        <ele>370.72265625</ele>
        <time>2021-12-09T08:52:38Z</time>
      </trkpt>
      <trkpt lat="43.34212" lon="2.40802">
        <ele>369.58203125</ele>
        <time>2021-12-09T08:52:45Z</time>
      </trkpt>
      <trkpt lat="43.34218" lon="2.4079">
        <ele>366.328125</ele>
        <time>2021-12-09T08:52:56Z</time>
      </trkpt>
      <trkpt lat="43.34231" lon="2.4078">
        <ele>364.40234375</ele>
        <time>2021-12-09T08:53:08Z</time>
      </trkpt>
      <trkpt lat="43.34241" lon="2.40775">
        <ele>363.98046875</ele>
        <time>2021-12-09T08:53:13Z</time>
      </trkpt>
      <trkpt lat="43.34264" lon="2.40765">
        <ele>362.68359375</ele>
        <time>2021-12-09T08:53:27Z</time>
      </trkpt>
      <trkpt lat="43.34284" lon="2.40757">
        <ele>361.8671875</ele>
        <time>2021-12-09T08:53:38Z</time>
      </trkpt>
      <trkpt lat="43.34301" lon="2.40753">
        <ele>361.890625</ele>
        <time>2021-12-09T08:53:49Z</time>
      </trkpt>
      <trkpt lat="43.34317" lon="2.40749">
        <ele>361.65234375</ele>
        <time>2021-12-09T08:53:59Z</time>
      </trkpt>
      <trkpt lat="43.34339" lon="2.4075">
        <ele>362.83984375</ele>
        <time>2021-12-09T08:54:14Z</time>
      </trkpt>
      <trkpt lat="43.34354" lon="2.40741">
        <ele>361.91015625</ele>
        <time>2021-12-09T08:54:34Z</time>
      </trkpt>
      <trkpt lat="43.34382" lon="2.40739">
        <ele>363.94921875</ele>
        <time>2021-12-09T08:54:45Z</time>
      </trkpt>
      <trkpt lat="43.34393" lon="2.40738">
        <ele>364.84765625</ele>
        <time>2021-12-09T08:54:52Z</time>
      </trkpt>
      <trkpt lat="43.34407" lon="2.40735">
        <ele>366.62109375</ele>
        <time>2021-12-09T08:55:01Z</time>
      </trkpt>
      <trkpt lat="43.34418" lon="2.40729">
        <ele>369.37890625</ele>
        <time>2021-12-09T08:55:19Z</time>
      </trkpt>
      <trkpt lat="43.34435" lon="2.40726">
        <ele>372.78125</ele>
        <time>2021-12-09T08:55:37Z</time>
      </trkpt>
      <trkpt lat="43.34445" lon="2.40723">
        <ele>375.30078125</ele>
        <time>2021-12-09T08:55:52Z</time>
      </trkpt>
      <trkpt lat="43.34451" lon="2.4072">
        <ele>377.546875</ele>
        <time>2021-12-09T08:57:47Z</time>
      </trkpt>
      <trkpt lat="43.34438" lon="2.40711">
        <ele>378.5703125</ele>
        <time>2021-12-09T08:58:13Z</time>
      </trkpt>
      <trkpt lat="43.34425" lon="2.40702">
        <ele>379.0546875</ele>
        <time>2021-12-09T08:58:25Z</time>
      </trkpt>
      <trkpt lat="43.34411" lon="2.40695">
        <ele>378.7421875</ele>
        <time>2021-12-09T08:58:38Z</time>
      </trkpt>
      <trkpt lat="43.34397" lon="2.40685">
        <ele>379.21875</ele>
        <time>2021-12-09T08:58:51Z</time>
      </trkpt>
      <trkpt lat="43.34386" lon="2.40678">
        <ele>378.984375</ele>
        <time>2021-12-09T08:59:02Z</time>
      </trkpt>
      <trkpt lat="43.34363" lon="2.40663">
        <ele>377.99609375</ele>
        <time>2021-12-09T08:59:17Z</time>
      </trkpt>
      <trkpt lat="43.34348" lon="2.40653">
        <ele>376.7734375</ele>
        <time>2021-12-09T08:59:34Z</time>
      </trkpt>
      <trkpt lat="43.34333" lon="2.40626">
        <ele>377.42578125</ele>
        <time>2021-12-09T08:59:49Z</time>
      </trkpt>
      <trkpt lat="43.34344" lon="2.40593">
        <ele>382.25</ele>
        <time>2021-12-09T08:59:55Z</time>
      </trkpt>
      <trkpt lat="43.3435" lon="2.40565">
        <ele>385.45703125</ele>
        <time>2021-12-09T09:00:06Z</time>
      </trkpt>
      <trkpt lat="43.34363" lon="2.40553">
        <ele>387.8125</ele>
        <time>2021-12-09T09:00:17Z</time>
      </trkpt>
      <trkpt lat="43.34375" lon="2.40539">
        <ele>390.390625</ele>
        <time>2021-12-09T09:00:34Z</time>
      </trkpt>
      <trkpt lat="43.34383" lon="2.40532">
        <ele>391.47265625</ele>
        <time>2021-12-09T09:00:41Z</time>
      </trkpt>
      <trkpt lat="43.34392" lon="2.40526">
        <ele>392.08984375</ele>
        <time>2021-12-09T09:00:47Z</time>
      </trkpt>
      <trkpt lat="43.34402" lon="2.40516">
        <ele>393.328125</ele>
        <time>2021-12-09T09:00:57Z</time>
      </trkpt>
      <trkpt lat="43.34414" lon="2.40509">
        <ele>395.234375</ele>
        <time>2021-12-09T09:01:06Z</time>
      </trkpt>
      <trkpt lat="43.34436" lon="2.40502">
        <ele>400.4140625</ele>
        <time>2021-12-09T09:01:19Z</time>
      </trkpt>
      <trkpt lat="43.34448" lon="2.40496">
        <ele>402.76171875</ele>
        <time>2021-12-09T09:01:26Z</time>
      </trkpt>
      <trkpt lat="43.34459" lon="2.4049">
        <ele>404.5390625</ele>
        <time>2021-12-09T09:01:35Z</time>
      </trkpt>
      <trkpt lat="43.3447" lon="2.40487">
        <ele>405.7890625</ele>
        <time>2021-12-09T09:01:43Z</time>
      </trkpt>
      <trkpt lat="43.34484" lon="2.40479">
        <ele>408.79296875</ele>
        <time>2021-12-09T09:01:55Z</time>
      </trkpt>
      <trkpt lat="43.345" lon="2.40473">
        <ele>411.7890625</ele>
        <time>2021-12-09T09:02:07Z</time>
      </trkpt>
      <trkpt lat="43.34521" lon="2.4046">
        <ele>415.2734375</ele>
        <time>2021-12-09T09:02:28Z</time>
      </trkpt>
      <trkpt lat="43.3453" lon="2.40446">
        <ele>417.76171875</ele>
        <time>2021-12-09T09:02:38Z</time>
      </trkpt>
      <trkpt lat="43.34539" lon="2.40436">
        <ele>419.95703125</ele>
        <time>2021-12-09T09:02:46Z</time>
      </trkpt>
      <trkpt lat="43.34554" lon="2.40431">
        <ele>423.30078125</ele>
        <time>2021-12-09T09:02:57Z</time>
      </trkpt>
      <trkpt lat="43.34571" lon="2.40423">
        <ele>426.34375</ele>
        <time>2021-12-09T09:03:09Z</time>
      </trkpt>
      <trkpt lat="43.34584" lon="2.40417">
        <ele>428.359375</ele>
        <time>2021-12-09T09:03:18Z</time>
      </trkpt>
      <trkpt lat="43.34599" lon="2.4041">
        <ele>431.01953125</ele>
        <time>2021-12-09T09:03:29Z</time>
      </trkpt>
      <trkpt lat="43.34613" lon="2.40404">
        <ele>434.47265625</ele>
        <time>2021-12-09T09:03:40Z</time>
      </trkpt>
      <trkpt lat="43.34626" lon="2.4039">
        <ele>438.5234375</ele>
        <time>2021-12-09T09:03:54Z</time>
      </trkpt>
      <trkpt lat="43.34641" lon="2.40385">
        <ele>441.93359375</ele>
        <time>2021-12-09T09:04:07Z</time>
      </trkpt>
      <trkpt lat="43.34653" lon="2.40375">
        <ele>444.90234375</ele>
        <time>2021-12-09T09:04:19Z</time>
      </trkpt>
      <trkpt lat="43.34663" lon="2.40364">
        <ele>446.7109375</ele>
        <time>2021-12-09T09:04:30Z</time>
      </trkpt>
      <trkpt lat="43.3468" lon="2.40355">
        <ele>448.5234375</ele>
        <time>2021-12-09T09:04:43Z</time>
      </trkpt>
      <trkpt lat="43.3469" lon="2.40342">
        <ele>452.296875</ele>
        <time>2021-12-09T09:05:00Z</time>
      </trkpt>
      <trkpt lat="43.34712" lon="2.40337">
        <ele>456.64453125</ele>
        <time>2021-12-09T09:05:20Z</time>
      </trkpt>
      <trkpt lat="43.34729" lon="2.40324">
        <ele>460.51953125</ele>
        <time>2021-12-09T09:05:38Z</time>
      </trkpt>
      <trkpt lat="43.34741" lon="2.40325">
        <ele>461.79296875</ele>
        <time>2021-12-09T09:05:47Z</time>
      </trkpt>
      <trkpt lat="43.34755" lon="2.40328">
        <ele>463.52734375</ele>
        <time>2021-12-09T09:05:55Z</time>
      </trkpt>
      <trkpt lat="43.3477" lon="2.40325">
        <ele>466.07421875</ele>
        <time>2021-12-09T09:06:11Z</time>
      </trkpt>
      <trkpt lat="43.34781" lon="2.4032">
        <ele>467.890625</ele>
        <time>2021-12-09T09:06:23Z</time>
      </trkpt>
      <trkpt lat="43.3479" lon="2.4032">
        <ele>469.2421875</ele>
        <time>2021-12-09T09:06:29Z</time>
      </trkpt>
      <trkpt lat="43.34801" lon="2.40321">
        <ele>470.859375</ele>
        <time>2021-12-09T09:06:40Z</time>
      </trkpt>
      <trkpt lat="43.34811" lon="2.40318">
        <ele>472.27734375</ele>
        <time>2021-12-09T09:06:46Z</time>
      </trkpt>
      <trkpt lat="43.34831" lon="2.40302">
        <ele>473.94140625</ele>
        <time>2021-12-09T09:06:58Z</time>
      </trkpt>
      <trkpt lat="43.34849" lon="2.40291">
        <ele>476.9921875</ele>
        <time>2021-12-09T09:07:09Z</time>
      </trkpt>
      <trkpt lat="43.34857" lon="2.40283">
        <ele>479.56640625</ele>
        <time>2021-12-09T09:07:16Z</time>
      </trkpt>
      <trkpt lat="43.34866" lon="2.40275">
        <ele>482.09765625</ele>
        <time>2021-12-09T09:07:25Z</time>
      </trkpt>
      <trkpt lat="43.34875" lon="2.40274">
        <ele>483.515625</ele>
        <time>2021-12-09T09:07:34Z</time>
      </trkpt>
      <trkpt lat="43.34886" lon="2.40262">
        <ele>486.02734375</ele>
        <time>2021-12-09T09:07:44Z</time>
      </trkpt>
      <trkpt lat="43.34904" lon="2.40247">
        <ele>488.390625</ele>
        <time>2021-12-09T09:07:56Z</time>
      </trkpt>
      <trkpt lat="43.34924" lon="2.40241">
        <ele>490.984375</ele>
        <time>2021-12-09T09:08:08Z</time>
      </trkpt>
      <trkpt lat="43.34938" lon="2.40237">
        <ele>494.6484375</ele>
        <time>2021-12-09T09:08:16Z</time>
      </trkpt>
      <trkpt lat="43.34944" lon="2.40226">
        <ele>497.97265625</ele>
        <time>2021-12-09T09:08:25Z</time>
      </trkpt>
      <trkpt lat="43.34932" lon="2.40206">
        <ele>500.70703125</ele>
        <time>2021-12-09T09:08:43Z</time>
      </trkpt>
      <trkpt lat="43.34922" lon="2.40202">
        <ele>500.64453125</ele>
        <time>2021-12-09T09:08:50Z</time>
      </trkpt>
      <trkpt lat="43.34907" lon="2.40193">
        <ele>502.3828125</ele>
        <time>2021-12-09T09:09:02Z</time>
      </trkpt>
      <trkpt lat="43.34893" lon="2.40173">
        <ele>506</ele>
        <time>2021-12-09T09:09:14Z</time>
      </trkpt>
      <trkpt lat="43.34878" lon="2.40159">
        <ele>507.86328125</ele>
        <time>2021-12-09T09:09:28Z</time>
      </trkpt>
      <trkpt lat="43.3487" lon="2.40146">
        <ele>509.484375</ele>
        <time>2021-12-09T09:09:39Z</time>
      </trkpt>
      <trkpt lat="43.3486" lon="2.40126">
        <ele>511.4453125</ele>
        <time>2021-12-09T09:09:48Z</time>
      </trkpt>
      <trkpt lat="43.34853" lon="2.40108">
        <ele>512.96875</ele>
        <time>2021-12-09T09:10:01Z</time>
      </trkpt>
      <trkpt lat="43.34861" lon="2.4008">
        <ele>514.78515625</ele>
        <time>2021-12-09T09:10:14Z</time>
      </trkpt>
      <trkpt lat="43.34873" lon="2.40073">
        <ele>515.44921875</ele>
        <time>2021-12-09T09:10:25Z</time>
      </trkpt>
      <trkpt lat="43.34884" lon="2.40071">
        <ele>515.8671875</ele>
        <time>2021-12-09T09:10:33Z</time>
      </trkpt>
      <trkpt lat="43.34898" lon="2.40075">
        <ele>516.3984375</ele>
        <time>2021-12-09T09:10:43Z</time>
      </trkpt>
      <trkpt lat="43.34908" lon="2.40075">
        <ele>516.78125</ele>
        <time>2021-12-09T09:10:51Z</time>
      </trkpt>
      <trkpt lat="43.34923" lon="2.40073">
        <ele>517.75390625</ele>
        <time>2021-12-09T09:11:01Z</time>
      </trkpt>
      <trkpt lat="43.34939" lon="2.40063">
        <ele>519.328125</ele>
        <time>2021-12-09T09:11:09Z</time>
      </trkpt>
      <trkpt lat="43.34951" lon="2.40055">
        <ele>520.51953125</ele>
        <time>2021-12-09T09:11:15Z</time>
      </trkpt>
      <trkpt lat="43.34959" lon="2.40044">
        <ele>521.44921875</ele>
        <time>2021-12-09T09:11:21Z</time>
      </trkpt>
      <trkpt lat="43.34971" lon="2.40024">
        <ele>523.13671875</ele>
        <time>2021-12-09T09:11:32Z</time>
      </trkpt>
      <trkpt lat="43.34983" lon="2.40005">
        <ele>524.265625</ele>
        <time>2021-12-09T09:11:42Z</time>
      </trkpt>
      <trkpt lat="43.34991" lon="2.39997">
        <ele>525.171875</ele>
        <time>2021-12-09T09:11:49Z</time>
      </trkpt>
      <trkpt lat="43.35004" lon="2.39996">
        <ele>526.95703125</ele>
        <time>2021-12-09T09:11:59Z</time>
      </trkpt>
      <trkpt lat="43.35018" lon="2.39994">
        <ele>528.89453125</ele>
        <time>2021-12-09T09:12:09Z</time>
      </trkpt>
      <trkpt lat="43.35027" lon="2.39997">
        <ele>530.22265625</ele>
        <time>2021-12-09T09:12:17Z</time>
      </trkpt>
      <trkpt lat="43.35042" lon="2.40005">
        <ele>532.45703125</ele>
        <time>2021-12-09T09:12:27Z</time>
      </trkpt>
      <trkpt lat="43.35053" lon="2.40012">
        <ele>534.12109375</ele>
        <time>2021-12-09T09:12:35Z</time>
      </trkpt>
      <trkpt lat="43.35065" lon="2.40023">
        <ele>535.67578125</ele>
        <time>2021-12-09T09:12:43Z</time>
      </trkpt>
      <trkpt lat="43.35077" lon="2.40038">
        <ele>536.83203125</ele>
        <time>2021-12-09T09:12:53Z</time>
      </trkpt>
      <trkpt lat="43.35089" lon="2.40058">
        <ele>537.86328125</ele>
        <time>2021-12-09T09:13:03Z</time>
      </trkpt>
      <trkpt lat="43.35101" lon="2.40081">
        <ele>538.69921875</ele>
        <time>2021-12-09T09:13:15Z</time>
      </trkpt>
      <trkpt lat="43.3511" lon="2.40097">
        <ele>539.453125</ele>
        <time>2021-12-09T09:13:24Z</time>
      </trkpt>
      <trkpt lat="43.35118" lon="2.40114">
        <ele>540.2578125</ele>
        <time>2021-12-09T09:13:33Z</time>
      </trkpt>
      <trkpt lat="43.35127" lon="2.40134">
        <ele>541.421875</ele>
        <time>2021-12-09T09:13:43Z</time>
      </trkpt>
      <trkpt lat="43.35136" lon="2.40155">
        <ele>543.2890625</ele>
        <time>2021-12-09T09:13:53Z</time>
      </trkpt>
      <trkpt lat="43.35141" lon="2.40169">
        <ele>544.38671875</ele>
        <time>2021-12-09T09:14:01Z</time>
      </trkpt>
      <trkpt lat="43.35148" lon="2.4019">
        <ele>545.7109375</ele>
        <time>2021-12-09T09:14:12Z</time>
      </trkpt>
      <trkpt lat="43.35154" lon="2.40209">
        <ele>546.6328125</ele>
        <time>2021-12-09T09:14:21Z</time>
      </trkpt>
      <trkpt lat="43.3516" lon="2.40229">
        <ele>547.7265625</ele>
        <time>2021-12-09T09:14:31Z</time>
      </trkpt>
      <trkpt lat="43.35169" lon="2.40245">
        <ele>549.34375</ele>
        <time>2021-12-09T09:14:41Z</time>
      </trkpt>
      <trkpt lat="43.35172" lon="2.40263">
        <ele>550.76953125</ele>
        <time>2021-12-09T09:14:49Z</time>
      </trkpt>
      <trkpt lat="43.35173" lon="2.40282">
        <ele>551.86328125</ele>
        <time>2021-12-09T09:14:57Z</time>
      </trkpt>
      <trkpt lat="43.35173" lon="2.40303">
        <ele>552.8125</ele>
        <time>2021-12-09T09:15:08Z</time>
      </trkpt>
      <trkpt lat="43.35176" lon="2.40325">
        <ele>554.515625</ele>
        <time>2021-12-09T09:15:21Z</time>
      </trkpt>
      <trkpt lat="43.35175" lon="2.4034">
        <ele>555.1875</ele>
        <time>2021-12-09T09:15:28Z</time>
      </trkpt>
      <trkpt lat="43.35178" lon="2.40354">
        <ele>556.24609375</ele>
        <time>2021-12-09T09:15:33Z</time>
      </trkpt>
      <trkpt lat="43.35181" lon="2.40379">
        <ele>557.921875</ele>
        <time>2021-12-09T09:15:41Z</time>
      </trkpt>
      <trkpt lat="43.35191" lon="2.40406">
        <ele>559.84375</ele>
        <time>2021-12-09T09:15:52Z</time>
      </trkpt>
      <trkpt lat="43.35202" lon="2.40418">
        <ele>560.68359375</ele>
        <time>2021-12-09T09:16:00Z</time>
      </trkpt>
      <trkpt lat="43.35218" lon="2.40441">
        <ele>561.61328125</ele>
        <time>2021-12-09T09:16:11Z</time>
      </trkpt>
      <trkpt lat="43.35224" lon="2.40454">
        <ele>561.86328125</ele>
        <time>2021-12-09T09:16:16Z</time>
      </trkpt>
      <trkpt lat="43.35229" lon="2.40466">
        <ele>561.9375</ele>
        <time>2021-12-09T09:16:21Z</time>
      </trkpt>
      <trkpt lat="43.35238" lon="2.40489">
        <ele>560.98046875</ele>
        <time>2021-12-09T09:16:30Z</time>
      </trkpt>
      <trkpt lat="43.35251" lon="2.40506">
        <ele>561.1640625</ele>
        <time>2021-12-09T09:16:40Z</time>
      </trkpt>
      <trkpt lat="43.35266" lon="2.40515">
        <ele>562.2421875</ele>
        <time>2021-12-09T09:16:47Z</time>
      </trkpt>
      <trkpt lat="43.35269" lon="2.40527">
        <ele>561.921875</ele>
        <time>2021-12-09T09:16:51Z</time>
      </trkpt>
      <trkpt lat="43.35271" lon="2.4054">
        <ele>561.30078125</ele>
        <time>2021-12-09T09:16:55Z</time>
      </trkpt>
      <trkpt lat="43.35272" lon="2.40579">
        <ele>558.87890625</ele>
        <time>2021-12-09T09:17:04Z</time>
      </trkpt>
      <trkpt lat="43.35272" lon="2.40603">
        <ele>557.58984375</ele>
        <time>2021-12-09T09:17:11Z</time>
      </trkpt>
      <trkpt lat="43.35275" lon="2.40614">
        <ele>557.31640625</ele>
        <time>2021-12-09T09:17:16Z</time>
      </trkpt>
      <trkpt lat="43.35276" lon="2.40629">
        <ele>556.73046875</ele>
        <time>2021-12-09T09:17:21Z</time>
      </trkpt>
      <trkpt lat="43.35282" lon="2.40653">
        <ele>556.8515625</ele>
        <time>2021-12-09T09:17:30Z</time>
      </trkpt>
      <trkpt lat="43.35285" lon="2.40674">
        <ele>556.6953125</ele>
        <time>2021-12-09T09:17:37Z</time>
      </trkpt>
      <trkpt lat="43.35298" lon="2.40691">
        <ele>557.29296875</ele>
        <time>2021-12-09T09:17:44Z</time>
      </trkpt>
      <trkpt lat="43.35313" lon="2.40704">
        <ele>557.7265625</ele>
        <time>2021-12-09T09:17:51Z</time>
      </trkpt>
      <trkpt lat="43.35326" lon="2.40715">
        <ele>557.92578125</ele>
        <time>2021-12-09T09:17:58Z</time>
      </trkpt>
      <trkpt lat="43.35339" lon="2.40728">
        <ele>557.93359375</ele>
        <time>2021-12-09T09:18:06Z</time>
      </trkpt>
      <trkpt lat="43.35363" lon="2.40738">
        <ele>558.1875</ele>
        <time>2021-12-09T09:18:14Z</time>
      </trkpt>
      <trkpt lat="43.35377" lon="2.40743">
        <ele>557.171875</ele>
        <time>2021-12-09T09:18:20Z</time>
      </trkpt>
      <trkpt lat="43.35392" lon="2.40747">
        <ele>556.078125</ele>
        <time>2021-12-09T09:18:35Z</time>
      </trkpt>
      <trkpt lat="43.35409" lon="2.40748">
        <ele>555.19140625</ele>
        <time>2021-12-09T09:18:50Z</time>
      </trkpt>
      <trkpt lat="43.35424" lon="2.40751">
        <ele>554.21875</ele>
        <time>2021-12-09T09:19:00Z</time>
      </trkpt>
      <trkpt lat="43.35432" lon="2.40761">
        <ele>551.78515625</ele>
        <time>2021-12-09T09:19:10Z</time>
      </trkpt>
      <trkpt lat="43.35456" lon="2.40762">
        <ele>550.63671875</ele>
        <time>2021-12-09T09:19:22Z</time>
      </trkpt>
      <trkpt lat="43.35466" lon="2.40762">
        <ele>550.21875</ele>
        <time>2021-12-09T09:19:27Z</time>
      </trkpt>
      <trkpt lat="43.35478" lon="2.40764">
        <ele>549.421875</ele>
        <time>2021-12-09T09:19:32Z</time>
      </trkpt>
      <trkpt lat="43.35488" lon="2.40764">
        <ele>548.984375</ele>
        <time>2021-12-09T09:19:36Z</time>
      </trkpt>
      <trkpt lat="43.35503" lon="2.40766">
        <ele>548.03125</ele>
        <time>2021-12-09T09:19:44Z</time>
      </trkpt>
      <trkpt lat="43.35514" lon="2.40771">
        <ele>546.51171875</ele>
        <time>2021-12-09T09:19:50Z</time>
      </trkpt>
      <trkpt lat="43.35537" lon="2.40782">
        <ele>543.5859375</ele>
        <time>2021-12-09T09:19:59Z</time>
      </trkpt>
      <trkpt lat="43.35549" lon="2.40789">
        <ele>542.0703125</ele>
        <time>2021-12-09T09:20:09Z</time>
      </trkpt>
      <trkpt lat="43.3554" lon="2.40807">
        <ele>538.7421875</ele>
        <time>2021-12-09T09:20:15Z</time>
      </trkpt>
      <trkpt lat="43.35526" lon="2.40825">
        <ele>535.73046875</ele>
        <time>2021-12-09T09:20:30Z</time>
      </trkpt>
      <trkpt lat="43.35506" lon="2.40841">
        <ele>532.68359375</ele>
        <time>2021-12-09T09:20:42Z</time>
      </trkpt>
      <trkpt lat="43.35493" lon="2.40853">
        <ele>529.66796875</ele>
        <time>2021-12-09T09:20:50Z</time>
      </trkpt>
      <trkpt lat="43.35484" lon="2.40867">
        <ele>529.13671875</ele>
        <time>2021-12-09T09:20:57Z</time>
      </trkpt>
      <trkpt lat="43.35475" lon="2.40877">
        <ele>527.98828125</ele>
        <time>2021-12-09T09:21:03Z</time>
      </trkpt>
      <trkpt lat="43.35466" lon="2.40881">
        <ele>526.9140625</ele>
        <time>2021-12-09T09:21:08Z</time>
      </trkpt>
      <trkpt lat="43.35451" lon="2.409">
        <ele>524.6171875</ele>
        <time>2021-12-09T09:21:18Z</time>
      </trkpt>
      <trkpt lat="43.35436" lon="2.40939">
        <ele>522.53515625</ele>
        <time>2021-12-09T09:21:27Z</time>
      </trkpt>
      <trkpt lat="43.35429" lon="2.40955">
        <ele>520.73828125</ele>
        <time>2021-12-09T09:21:32Z</time>
      </trkpt>
      <trkpt lat="43.3542" lon="2.40967">
        <ele>518.265625</ele>
        <time>2021-12-09T09:21:38Z</time>
      </trkpt>
      <trkpt lat="43.35411" lon="2.40984">
        <ele>519.3671875</ele>
        <time>2021-12-09T09:21:46Z</time>
      </trkpt>
      <trkpt lat="43.35406" lon="2.40997">
        <ele>520.984375</ele>
        <time>2021-12-09T09:21:51Z</time>
      </trkpt>
      <trkpt lat="43.35399" lon="2.41018">
        <ele>523.625</ele>
        <time>2021-12-09T09:21:58Z</time>
      </trkpt>
      <trkpt lat="43.35397" lon="2.41046">
        <ele>528.05859375</ele>
        <time>2021-12-09T09:22:10Z</time>
      </trkpt>
      <trkpt lat="43.35388" lon="2.41052">
        <ele>527.76953125</ele>
        <time>2021-12-09T09:22:13Z</time>
      </trkpt>
      <trkpt lat="43.35389" lon="2.4108">
        <ele>531.90625</ele>
        <time>2021-12-09T09:22:23Z</time>
      </trkpt>
      <trkpt lat="43.3539" lon="2.41107">
        <ele>530.47265625</ele>
        <time>2021-12-09T09:22:30Z</time>
      </trkpt>
      <trkpt lat="43.35403" lon="2.41128">
        <ele>529.8046875</ele>
        <time>2021-12-09T09:22:35Z</time>
      </trkpt>
      <trkpt lat="43.35424" lon="2.41135">
        <ele>530.62109375</ele>
        <time>2021-12-09T09:22:47Z</time>
      </trkpt>
      <trkpt lat="43.35446" lon="2.41151">
        <ele>530.03125</ele>
        <time>2021-12-09T09:23:01Z</time>
      </trkpt>
      <trkpt lat="43.35461" lon="2.41162">
        <ele>529.18359375</ele>
        <time>2021-12-09T09:23:07Z</time>
      </trkpt>
      <trkpt lat="43.35475" lon="2.41176">
        <ele>528.34765625</ele>
        <time>2021-12-09T09:23:14Z</time>
      </trkpt>
      <trkpt lat="43.35484" lon="2.41198">
        <ele>525.46484375</ele>
        <time>2021-12-09T09:23:24Z</time>
      </trkpt>
      <trkpt lat="43.3548" lon="2.41239">
        <ele>514.94921875</ele>
        <time>2021-12-09T09:23:37Z</time>
      </trkpt>
      <trkpt lat="43.35476" lon="2.41253">
        <ele>513.84765625</ele>
        <time>2021-12-09T09:23:43Z</time>
      </trkpt>
      <trkpt lat="43.3547" lon="2.41268">
        <ele>512.93359375</ele>
        <time>2021-12-09T09:23:53Z</time>
      </trkpt>
      <trkpt lat="43.35463" lon="2.41289">
        <ele>512.40625</ele>
        <time>2021-12-09T09:24:14Z</time>
      </trkpt>
      <trkpt lat="43.35466" lon="2.41305">
        <ele>513.95703125</ele>
        <time>2021-12-09T09:24:20Z</time>
      </trkpt>
      <trkpt lat="43.35476" lon="2.41318">
        <ele>517.9375</ele>
        <time>2021-12-09T09:24:27Z</time>
      </trkpt>
      <trkpt lat="43.35482" lon="2.41336">
        <ele>520.765625</ele>
        <time>2021-12-09T09:24:39Z</time>
      </trkpt>
      <trkpt lat="43.35509" lon="2.41366">
        <ele>529.74609375</ele>
        <time>2021-12-09T09:24:51Z</time>
      </trkpt>
      <trkpt lat="43.35515" lon="2.41379">
        <ele>530.29296875</ele>
        <time>2021-12-09T09:24:58Z</time>
      </trkpt>
      <trkpt lat="43.35526" lon="2.41392">
        <ele>532.4296875</ele>
        <time>2021-12-09T09:25:08Z</time>
      </trkpt>
      <trkpt lat="43.3554" lon="2.41406">
        <ele>534.6328125</ele>
        <time>2021-12-09T09:25:17Z</time>
      </trkpt>
      <trkpt lat="43.35565" lon="2.4143">
        <ele>538.23828125</ele>
        <time>2021-12-09T09:25:33Z</time>
      </trkpt>
      <trkpt lat="43.35575" lon="2.41443">
        <ele>538.77734375</ele>
        <time>2021-12-09T09:25:40Z</time>
      </trkpt>
      <trkpt lat="43.35584" lon="2.41466">
        <ele>537.74609375</ele>
        <time>2021-12-09T09:25:49Z</time>
      </trkpt>
      <trkpt lat="43.35594" lon="2.41494">
        <ele>538.12109375</ele>
        <time>2021-12-09T09:26:02Z</time>
      </trkpt>
      <trkpt lat="43.35609" lon="2.41516">
        <ele>541.01171875</ele>
        <time>2021-12-09T09:26:16Z</time>
      </trkpt>
      <trkpt lat="43.35614" lon="2.41538">
        <ele>541.1171875</ele>
        <time>2021-12-09T09:26:28Z</time>
      </trkpt>
      <trkpt lat="43.35619" lon="2.41557">
        <ele>542.078125</ele>
        <time>2021-12-09T09:26:38Z</time>
      </trkpt>
      <trkpt lat="43.35625" lon="2.41566">
        <ele>543.87890625</ele>
        <time>2021-12-09T09:26:44Z</time>
      </trkpt>
      <trkpt lat="43.35631" lon="2.41576">
        <ele>546.03125</ele>
        <time>2021-12-09T09:26:54Z</time>
      </trkpt>
      <trkpt lat="43.35646" lon="2.41603">
        <ele>552.015625</ele>
        <time>2021-12-09T09:27:15Z</time>
      </trkpt>
      <trkpt lat="43.35654" lon="2.41614">
        <ele>555.65234375</ele>
        <time>2021-12-09T09:27:27Z</time>
      </trkpt>
      <trkpt lat="43.35661" lon="2.41627">
        <ele>558.23828125</ele>
        <time>2021-12-09T09:27:38Z</time>
      </trkpt>
      <trkpt lat="43.35672" lon="2.41651">
        <ele>562.0625</ele>
        <time>2021-12-09T09:27:57Z</time>
      </trkpt>
      <trkpt lat="43.35679" lon="2.41664">
        <ele>564.89453125</ele>
        <time>2021-12-09T09:28:08Z</time>
      </trkpt>
      <trkpt lat="43.35688" lon="2.41681">
        <ele>568.25</ele>
        <time>2021-12-09T09:28:20Z</time>
      </trkpt>
      <trkpt lat="43.35698" lon="2.417">
        <ele>570.453125</ele>
        <time>2021-12-09T09:28:32Z</time>
      </trkpt>
      <trkpt lat="43.35707" lon="2.41719">
        <ele>571.9296875</ele>
        <time>2021-12-09T09:28:43Z</time>
      </trkpt>
      <trkpt lat="43.35715" lon="2.41726">
        <ele>574.2734375</ele>
        <time>2021-12-09T09:28:49Z</time>
      </trkpt>
      <trkpt lat="43.35728" lon="2.4174">
        <ele>577.97265625</ele>
        <time>2021-12-09T09:29:03Z</time>
      </trkpt>
      <trkpt lat="43.35745" lon="2.41755">
        <ele>582.0234375</ele>
        <time>2021-12-09T09:29:14Z</time>
      </trkpt>
      <trkpt lat="43.35757" lon="2.41763">
        <ele>583.33984375</ele>
        <time>2021-12-09T09:29:20Z</time>
      </trkpt>
      <trkpt lat="43.3577" lon="2.4177">
        <ele>584.8984375</ele>
        <time>2021-12-09T09:29:30Z</time>
      </trkpt>
      <trkpt lat="43.35787" lon="2.41781">
        <ele>587.02734375</ele>
        <time>2021-12-09T09:29:58Z</time>
      </trkpt>
      <trkpt lat="43.35795" lon="2.41792">
        <ele>586.2734375</ele>
        <time>2021-12-09T09:30:03Z</time>
      </trkpt>
      <trkpt lat="43.35806" lon="2.41808">
        <ele>584.6640625</ele>
        <time>2021-12-09T09:30:11Z</time>
      </trkpt>
      <trkpt lat="43.35815" lon="2.41812">
        <ele>585.2578125</ele>
        <time>2021-12-09T09:30:19Z</time>
      </trkpt>
      <trkpt lat="43.35837" lon="2.41814">
        <ele>589.50390625</ele>
        <time>2021-12-09T09:30:53Z</time>
      </trkpt>
      <trkpt lat="43.35848" lon="2.41823">
        <ele>589.59765625</ele>
        <time>2021-12-09T09:31:07Z</time>
      </trkpt>
      <trkpt lat="43.35861" lon="2.41834">
        <ele>590.11328125</ele>
        <time>2021-12-09T09:31:23Z</time>
      </trkpt>
      <trkpt lat="43.35883" lon="2.41839">
        <ele>594.66796875</ele>
        <time>2021-12-09T09:31:43Z</time>
      </trkpt>
      <trkpt lat="43.35892" lon="2.41845">
        <ele>595.87890625</ele>
        <time>2021-12-09T09:31:50Z</time>
      </trkpt>
      <trkpt lat="43.359" lon="2.41852">
        <ele>597.27734375</ele>
        <time>2021-12-09T09:31:57Z</time>
      </trkpt>
      <trkpt lat="43.35914" lon="2.41865">
        <ele>597.80859375</ele>
        <time>2021-12-09T09:32:11Z</time>
      </trkpt>
      <trkpt lat="43.35924" lon="2.41873">
        <ele>598.609375</ele>
        <time>2021-12-09T09:32:19Z</time>
      </trkpt>
      <trkpt lat="43.35934" lon="2.4188">
        <ele>599.70703125</ele>
        <time>2021-12-09T09:32:29Z</time>
      </trkpt>
      <trkpt lat="43.35943" lon="2.41897">
        <ele>598.2578125</ele>
        <time>2021-12-09T09:32:42Z</time>
      </trkpt>
      <trkpt lat="43.35952" lon="2.41906">
        <ele>599.265625</ele>
        <time>2021-12-09T09:33:03Z</time>
      </trkpt>
      <trkpt lat="43.35966" lon="2.41921">
        <ele>600</ele>
        <time>2021-12-09T09:33:27Z</time>
      </trkpt>
      <trkpt lat="43.35976" lon="2.41928">
        <ele>600.44140625</ele>
        <time>2021-12-09T09:33:35Z</time>
      </trkpt>
      <trkpt lat="43.35992" lon="2.41939">
        <ele>600.6015625</ele>
        <time>2021-12-09T09:33:53Z</time>
      </trkpt>
      <trkpt lat="43.36012" lon="2.41954">
        <ele>600.40234375</ele>
        <time>2021-12-09T09:34:05Z</time>
      </trkpt>
      <trkpt lat="43.36018" lon="2.41962">
        <ele>599.34765625</ele>
        <time>2021-12-09T09:34:12Z</time>
      </trkpt>
      <trkpt lat="43.3603" lon="2.41968">
        <ele>599.4765625</ele>
        <time>2021-12-09T09:34:18Z</time>
      </trkpt>
      <trkpt lat="43.3604" lon="2.41972">
        <ele>599.60546875</ele>
        <time>2021-12-09T09:34:22Z</time>
      </trkpt>
      <trkpt lat="43.36065" lon="2.41977">
        <ele>601.04296875</ele>
        <time>2021-12-09T09:34:28Z</time>
      </trkpt>
      <trkpt lat="43.36083" lon="2.41981">
        <ele>602.05078125</ele>
        <time>2021-12-09T09:34:32Z</time>
      </trkpt>
      <trkpt lat="43.36091" lon="2.41989">
        <ele>601.828125</ele>
        <time>2021-12-09T09:34:36Z</time>
      </trkpt>
      <trkpt lat="43.36091" lon="2.42002">
        <ele>598.3046875</ele>
        <time>2021-12-09T09:34:40Z</time>
      </trkpt>
      <trkpt lat="43.36093" lon="2.42018">
        <ele>594.28125</ele>
        <time>2021-12-09T09:34:46Z</time>
      </trkpt>
      <trkpt lat="43.36103" lon="2.42035">
        <ele>593.17578125</ele>
        <time>2021-12-09T09:34:54Z</time>
      </trkpt>
      <trkpt lat="43.36109" lon="2.42054">
        <ele>591.046875</ele>
        <time>2021-12-09T09:35:01Z</time>
      </trkpt>
      <trkpt lat="43.36109" lon="2.42067">
        <ele>588.93359375</ele>
        <time>2021-12-09T09:35:05Z</time>
      </trkpt>
      <trkpt lat="43.36114" lon="2.4208">
        <ele>588.5234375</ele>
        <time>2021-12-09T09:35:12Z</time>
      </trkpt>
      <trkpt lat="43.36121" lon="2.42094">
        <ele>590.26953125</ele>
        <time>2021-12-09T09:35:20Z</time>
      </trkpt>
      <trkpt lat="43.36125" lon="2.42105">
        <ele>591.3203125</ele>
        <time>2021-12-09T09:35:26Z</time>
      </trkpt>
      <trkpt lat="43.3613" lon="2.42116">
        <ele>592.16796875</ele>
        <time>2021-12-09T09:35:32Z</time>
      </trkpt>
      <trkpt lat="43.36136" lon="2.42137">
        <ele>594.08203125</ele>
        <time>2021-12-09T09:35:43Z</time>
      </trkpt>
      <trkpt lat="43.36139" lon="2.42155">
        <ele>597.12890625</ele>
        <time>2021-12-09T09:35:51Z</time>
      </trkpt>
      <trkpt lat="43.36135" lon="2.4217">
        <ele>599.5234375</ele>
        <time>2021-12-09T09:35:57Z</time>
      </trkpt>
      <trkpt lat="43.36112" lon="2.42177">
        <ele>601.04296875</ele>
        <time>2021-12-09T09:36:14Z</time>
      </trkpt>
      <trkpt lat="43.361" lon="2.42179">
        <ele>601.52734375</ele>
        <time>2021-12-09T09:36:25Z</time>
      </trkpt>
      <trkpt lat="43.36088" lon="2.4218">
        <ele>601.90234375</ele>
        <time>2021-12-09T09:36:35Z</time>
      </trkpt>
      <trkpt lat="43.36075" lon="2.42178">
        <ele>601.79296875</ele>
        <time>2021-12-09T09:36:41Z</time>
      </trkpt>
      <trkpt lat="43.36056" lon="2.4218">
        <ele>602.46875</ele>
        <time>2021-12-09T09:36:52Z</time>
      </trkpt>
      <trkpt lat="43.3604" lon="2.42176">
        <ele>601.96875</ele>
        <time>2021-12-09T09:37:01Z</time>
      </trkpt>
      <trkpt lat="43.36015" lon="2.42176">
        <ele>602.37109375</ele>
        <time>2021-12-09T09:37:16Z</time>
      </trkpt>
      <trkpt lat="43.36005" lon="2.4218">
        <ele>603.53125</ele>
        <time>2021-12-09T09:37:22Z</time>
      </trkpt>
      <trkpt lat="43.35993" lon="2.42185">
        <ele>605.03125</ele>
        <time>2021-12-09T09:37:29Z</time>
      </trkpt>
      <trkpt lat="43.35973" lon="2.42191">
        <ele>607.078125</ele>
        <time>2021-12-09T09:37:39Z</time>
      </trkpt>
      <trkpt lat="43.35965" lon="2.42197">
        <ele>609.18359375</ele>
        <time>2021-12-09T09:37:43Z</time>
      </trkpt>
      <trkpt lat="43.35956" lon="2.42202">
        <ele>610.89453125</ele>
        <time>2021-12-09T09:37:47Z</time>
      </trkpt>
      <trkpt lat="43.35946" lon="2.42205">
        <ele>612.421875</ele>
        <time>2021-12-09T09:37:51Z</time>
      </trkpt>
      <trkpt lat="43.3593" lon="2.42208">
        <ele>614.04296875</ele>
        <time>2021-12-09T09:37:58Z</time>
      </trkpt>
      <trkpt lat="43.35912" lon="2.42212">
        <ele>616.20703125</ele>
        <time>2021-12-09T09:38:06Z</time>
      </trkpt>
      <trkpt lat="43.35901" lon="2.42213">
        <ele>616.78125</ele>
        <time>2021-12-09T09:38:13Z</time>
      </trkpt>
      <trkpt lat="43.35885" lon="2.42217">
        <ele>618.203125</ele>
        <time>2021-12-09T09:38:27Z</time>
      </trkpt>
      <trkpt lat="43.35869" lon="2.42221">
        <ele>619.53515625</ele>
        <time>2021-12-09T09:38:37Z</time>
      </trkpt>
      <trkpt lat="43.35861" lon="2.42218">
        <ele>619.20703125</ele>
        <time>2021-12-09T09:38:41Z</time>
      </trkpt>
      <trkpt lat="43.3585" lon="2.42223">
        <ele>619.78125</ele>
        <time>2021-12-09T09:38:49Z</time>
      </trkpt>
      <trkpt lat="43.35838" lon="2.42222">
        <ele>618.78125</ele>
        <time>2021-12-09T09:38:54Z</time>
      </trkpt>
      <trkpt lat="43.35826" lon="2.42227">
        <ele>618.9296875</ele>
        <time>2021-12-09T09:39:01Z</time>
      </trkpt>
      <trkpt lat="43.35813" lon="2.42228">
        <ele>618.375</ele>
        <time>2021-12-09T09:39:07Z</time>
      </trkpt>
      <trkpt lat="43.35798" lon="2.42237">
        <ele>619.97265625</ele>
        <time>2021-12-09T09:39:15Z</time>
      </trkpt>
      <trkpt lat="43.35787" lon="2.42243">
        <ele>622.03515625</ele>
        <time>2021-12-09T09:39:21Z</time>
      </trkpt>
      <trkpt lat="43.35776" lon="2.42246">
        <ele>623.23046875</ele>
        <time>2021-12-09T09:39:26Z</time>
      </trkpt>
      <trkpt lat="43.35763" lon="2.42254">
        <ele>625.65234375</ele>
        <time>2021-12-09T09:39:34Z</time>
      </trkpt>
      <trkpt lat="43.35757" lon="2.42263">
        <ele>628.171875</ele>
        <time>2021-12-09T09:39:38Z</time>
      </trkpt>
      <trkpt lat="43.35742" lon="2.42274">
        <ele>632.11328125</ele>
        <time>2021-12-09T09:39:46Z</time>
      </trkpt>
      <trkpt lat="43.35722" lon="2.42276">
        <ele>635.90625</ele>
        <time>2021-12-09T09:39:56Z</time>
      </trkpt>
      <trkpt lat="43.35707" lon="2.4227">
        <ele>637.01171875</ele>
        <time>2021-12-09T09:40:03Z</time>
      </trkpt>
      <trkpt lat="43.35695" lon="2.42261">
        <ele>637.42578125</ele>
        <time>2021-12-09T09:40:09Z</time>
      </trkpt>
      <trkpt lat="43.35687" lon="2.42255">
        <ele>637.00390625</ele>
        <time>2021-12-09T09:40:13Z</time>
      </trkpt>
      <trkpt lat="43.35676" lon="2.42247">
        <ele>636.15234375</ele>
        <time>2021-12-09T09:40:19Z</time>
      </trkpt>
      <trkpt lat="43.35656" lon="2.42239">
        <ele>635.96875</ele>
        <time>2021-12-09T09:40:29Z</time>
      </trkpt>
      <trkpt lat="43.35639" lon="2.42233">
        <ele>636.08203125</ele>
        <time>2021-12-09T09:40:36Z</time>
      </trkpt>
      <trkpt lat="43.35622" lon="2.42237">
        <ele>635.48046875</ele>
        <time>2021-12-09T09:40:44Z</time>
      </trkpt>
      <trkpt lat="43.356" lon="2.42245">
        <ele>634.7734375</ele>
        <time>2021-12-09T09:40:53Z</time>
      </trkpt>
      <trkpt lat="43.35589" lon="2.42252">
        <ele>634.7421875</ele>
        <time>2021-12-09T09:40:59Z</time>
      </trkpt>
      <trkpt lat="43.35579" lon="2.42258">
        <ele>634.91796875</ele>
        <time>2021-12-09T09:41:04Z</time>
      </trkpt>
      <trkpt lat="43.35569" lon="2.42264">
        <ele>635.86328125</ele>
        <time>2021-12-09T09:41:08Z</time>
      </trkpt>
      <trkpt lat="43.35553" lon="2.42275">
        <ele>637.3125</ele>
        <time>2021-12-09T09:41:15Z</time>
      </trkpt>
      <trkpt lat="43.35541" lon="2.42279">
        <ele>637.62109375</ele>
        <time>2021-12-09T09:41:21Z</time>
      </trkpt>
      <trkpt lat="43.3553" lon="2.42305">
        <ele>640.63671875</ele>
        <time>2021-12-09T09:41:26Z</time>
      </trkpt>
      <trkpt lat="43.35524" lon="2.42312">
        <ele>640.8359375</ele>
        <time>2021-12-09T09:41:29Z</time>
      </trkpt>
      <trkpt lat="43.35505" lon="2.42312">
        <ele>640.953125</ele>
        <time>2021-12-09T09:41:37Z</time>
      </trkpt>
      <trkpt lat="43.35478" lon="2.42319">
        <ele>640.87890625</ele>
        <time>2021-12-09T09:41:45Z</time>
      </trkpt>
      <trkpt lat="43.35464" lon="2.42317">
        <ele>640.23046875</ele>
        <time>2021-12-09T09:41:52Z</time>
      </trkpt>
      <trkpt lat="43.35446" lon="2.42324">
        <ele>637.5703125</ele>
        <time>2021-12-09T09:41:59Z</time>
      </trkpt>
      <trkpt lat="43.35428" lon="2.42328">
        <ele>634.97265625</ele>
        <time>2021-12-09T09:42:05Z</time>
      </trkpt>
      <trkpt lat="43.35412" lon="2.42323">
        <ele>633.41796875</ele>
        <time>2021-12-09T09:42:13Z</time>
      </trkpt>
      <trkpt lat="43.35401" lon="2.42303">
        <ele>633.59375</ele>
        <time>2021-12-09T09:42:19Z</time>
      </trkpt>
      <trkpt lat="43.35383" lon="2.42287">
        <ele>632.58203125</ele>
        <time>2021-12-09T09:42:27Z</time>
      </trkpt>
      <trkpt lat="43.35365" lon="2.42286">
        <ele>630.5</ele>
        <time>2021-12-09T09:42:33Z</time>
      </trkpt>
      <trkpt lat="43.35349" lon="2.42287">
        <ele>627.953125</ele>
        <time>2021-12-09T09:42:39Z</time>
      </trkpt>
      <trkpt lat="43.35332" lon="2.42285">
        <ele>625.4140625</ele>
        <time>2021-12-09T09:42:45Z</time>
      </trkpt>
      <trkpt lat="43.35314" lon="2.4228">
        <ele>623.4765625</ele>
        <time>2021-12-09T09:42:53Z</time>
      </trkpt>
      <trkpt lat="43.35304" lon="2.42274">
        <ele>622.8359375</ele>
        <time>2021-12-09T09:42:58Z</time>
      </trkpt>
      <trkpt lat="43.35284" lon="2.42269">
        <ele>620.109375</ele>
        <time>2021-12-09T09:43:06Z</time>
      </trkpt>
      <trkpt lat="43.35264" lon="2.42264">
        <ele>617.375</ele>
        <time>2021-12-09T09:43:13Z</time>
      </trkpt>
      <trkpt lat="43.35245" lon="2.42259">
        <ele>614.5859375</ele>
        <time>2021-12-09T09:43:20Z</time>
      </trkpt>
      <trkpt lat="43.35224" lon="2.42251">
        <ele>610.953125</ele>
        <time>2021-12-09T09:43:28Z</time>
      </trkpt>
      <trkpt lat="43.35203" lon="2.42237">
        <ele>608.30078125</ele>
        <time>2021-12-09T09:43:39Z</time>
      </trkpt>
      <trkpt lat="43.35195" lon="2.42228">
        <ele>607.6953125</ele>
        <time>2021-12-09T09:43:43Z</time>
      </trkpt>
      <trkpt lat="43.35177" lon="2.42216">
        <ele>605.12890625</ele>
        <time>2021-12-09T09:43:51Z</time>
      </trkpt>
      <trkpt lat="43.35161" lon="2.42205">
        <ele>603.04296875</ele>
        <time>2021-12-09T09:43:58Z</time>
      </trkpt>
      <trkpt lat="43.35139" lon="2.42186">
        <ele>600.5703125</ele>
        <time>2021-12-09T09:44:07Z</time>
      </trkpt>
      <trkpt lat="43.35117" lon="2.42173">
        <ele>596.3046875</ele>
        <time>2021-12-09T09:44:15Z</time>
      </trkpt>
      <trkpt lat="43.35101" lon="2.4216">
        <ele>593.68359375</ele>
        <time>2021-12-09T09:44:22Z</time>
      </trkpt>
      <trkpt lat="43.35094" lon="2.4215">
        <ele>592.6953125</ele>
        <time>2021-12-09T09:44:26Z</time>
      </trkpt>
      <trkpt lat="43.35077" lon="2.42138">
        <ele>589.265625</ele>
        <time>2021-12-09T09:44:34Z</time>
      </trkpt>
      <trkpt lat="43.35061" lon="2.42125">
        <ele>586.12890625</ele>
        <time>2021-12-09T09:44:42Z</time>
      </trkpt>
      <trkpt lat="43.35039" lon="2.4211">
        <ele>580.9296875</ele>
        <time>2021-12-09T09:44:51Z</time>
      </trkpt>
      <trkpt lat="43.35026" lon="2.42103">
        <ele>577.74609375</ele>
        <time>2021-12-09T09:44:56Z</time>
      </trkpt>
      <trkpt lat="43.35013" lon="2.42093">
        <ele>574.58984375</ele>
        <time>2021-12-09T09:45:02Z</time>
      </trkpt>
      <trkpt lat="43.35002" lon="2.42085">
        <ele>572.046875</ele>
        <time>2021-12-09T09:45:08Z</time>
      </trkpt>
      <trkpt lat="43.34991" lon="2.4207">
        <ele>569.1640625</ele>
        <time>2021-12-09T09:45:15Z</time>
      </trkpt>
      <trkpt lat="43.34981" lon="2.42056">
        <ele>566.32421875</ele>
        <time>2021-12-09T09:45:21Z</time>
      </trkpt>
      <trkpt lat="43.34966" lon="2.42036">
        <ele>562.3671875</ele>
        <time>2021-12-09T09:45:30Z</time>
      </trkpt>
      <trkpt lat="43.34955" lon="2.42015">
        <ele>559.625</ele>
        <time>2021-12-09T09:45:38Z</time>
      </trkpt>
      <trkpt lat="43.34945" lon="2.41994">
        <ele>556.45703125</ele>
        <time>2021-12-09T09:45:45Z</time>
      </trkpt>
      <trkpt lat="43.34937" lon="2.41972">
        <ele>553.8671875</ele>
        <time>2021-12-09T09:45:52Z</time>
      </trkpt>
      <trkpt lat="43.34923" lon="2.41945">
        <ele>549.51171875</ele>
        <time>2021-12-09T09:46:01Z</time>
      </trkpt>
      <trkpt lat="43.34905" lon="2.41923">
        <ele>545.328125</ele>
        <time>2021-12-09T09:46:09Z</time>
      </trkpt>
      <trkpt lat="43.34894" lon="2.41905">
        <ele>542.703125</ele>
        <time>2021-12-09T09:46:15Z</time>
      </trkpt>
      <trkpt lat="43.3488" lon="2.4188">
        <ele>538.76953125</ele>
        <time>2021-12-09T09:46:24Z</time>
      </trkpt>
      <trkpt lat="43.34868" lon="2.41853">
        <ele>535.70703125</ele>
        <time>2021-12-09T09:46:33Z</time>
      </trkpt>
      <trkpt lat="43.34853" lon="2.41832">
        <ele>532.125</ele>
        <time>2021-12-09T09:46:41Z</time>
      </trkpt>
      <trkpt lat="43.34838" lon="2.41813">
        <ele>528.765625</ele>
        <time>2021-12-09T09:46:49Z</time>
      </trkpt>
      <trkpt lat="43.34827" lon="2.41793">
        <ele>526.2421875</ele>
        <time>2021-12-09T09:46:56Z</time>
      </trkpt>
      <trkpt lat="43.34814" lon="2.41773">
        <ele>523.64453125</ele>
        <time>2021-12-09T09:47:04Z</time>
      </trkpt>
      <trkpt lat="43.34796" lon="2.41756">
        <ele>521.1875</ele>
        <time>2021-12-09T09:47:13Z</time>
      </trkpt>
      <trkpt lat="43.34777" lon="2.41742">
        <ele>518.16796875</ele>
        <time>2021-12-09T09:47:22Z</time>
      </trkpt>
      <trkpt lat="43.34763" lon="2.41739">
        <ele>516.515625</ele>
        <time>2021-12-09T09:47:28Z</time>
      </trkpt>
      <trkpt lat="43.3475" lon="2.41742">
        <ele>515.2578125</ele>
        <time>2021-12-09T09:47:35Z</time>
      </trkpt>
      <trkpt lat="43.34735" lon="2.41747">
        <ele>513.6640625</ele>
        <time>2021-12-09T09:47:41Z</time>
      </trkpt>
      <trkpt lat="43.34717" lon="2.41754">
        <ele>511.609375</ele>
        <time>2021-12-09T09:47:49Z</time>
      </trkpt>
      <trkpt lat="43.34703" lon="2.41758">
        <ele>509.9609375</ele>
        <time>2021-12-09T09:47:56Z</time>
      </trkpt>
      <trkpt lat="43.34689" lon="2.41761">
        <ele>508.41015625</ele>
        <time>2021-12-09T09:48:04Z</time>
      </trkpt>
      <trkpt lat="43.34678" lon="2.41767">
        <ele>507.640625</ele>
        <time>2021-12-09T09:48:09Z</time>
      </trkpt>
      <trkpt lat="43.34667" lon="2.41772">
        <ele>506.828125</ele>
        <time>2021-12-09T09:48:14Z</time>
      </trkpt>
      <trkpt lat="43.34656" lon="2.41776">
        <ele>506.00390625</ele>
        <time>2021-12-09T09:48:19Z</time>
      </trkpt>
      <trkpt lat="43.34641" lon="2.41781">
        <ele>504.81640625</ele>
        <time>2021-12-09T09:48:25Z</time>
      </trkpt>
      <trkpt lat="43.34627" lon="2.4179">
        <ele>503.53125</ele>
        <time>2021-12-09T09:48:31Z</time>
      </trkpt>
      <trkpt lat="43.34613" lon="2.41803">
        <ele>501.94921875</ele>
        <time>2021-12-09T09:48:38Z</time>
      </trkpt>
      <trkpt lat="43.34605" lon="2.41809">
        <ele>500.80859375</ele>
        <time>2021-12-09T09:48:44Z</time>
      </trkpt>
      <trkpt lat="43.34598" lon="2.41817">
        <ele>499.7890625</ele>
        <time>2021-12-09T09:48:49Z</time>
      </trkpt>
      <trkpt lat="43.34584" lon="2.41832">
        <ele>497.6796875</ele>
        <time>2021-12-09T09:48:58Z</time>
      </trkpt>
      <trkpt lat="43.34567" lon="2.41843">
        <ele>494.8984375</ele>
        <time>2021-12-09T09:49:06Z</time>
      </trkpt>
      <trkpt lat="43.34555" lon="2.41856">
        <ele>492.62109375</ele>
        <time>2021-12-09T09:49:13Z</time>
      </trkpt>
      <trkpt lat="43.34547" lon="2.41874">
        <ele>490.32421875</ele>
        <time>2021-12-09T09:49:20Z</time>
      </trkpt>
      <trkpt lat="43.34537" lon="2.4189">
        <ele>487.78515625</ele>
        <time>2021-12-09T09:49:28Z</time>
      </trkpt>
      <trkpt lat="43.34529" lon="2.4191">
        <ele>485.4609375</ele>
        <time>2021-12-09T09:49:35Z</time>
      </trkpt>
      <trkpt lat="43.34524" lon="2.41935">
        <ele>482.60546875</ele>
        <time>2021-12-09T09:49:44Z</time>
      </trkpt>
      <trkpt lat="43.34516" lon="2.41951">
        <ele>479.83984375</ele>
        <time>2021-12-09T09:49:51Z</time>
      </trkpt>
      <trkpt lat="43.34507" lon="2.41965">
        <ele>476.90234375</ele>
        <time>2021-12-09T09:49:58Z</time>
      </trkpt>
      <trkpt lat="43.34496" lon="2.41975">
        <ele>473.87109375</ele>
        <time>2021-12-09T09:50:05Z</time>
      </trkpt>
      <trkpt lat="43.34484" lon="2.42002">
        <ele>470.421875</ele>
        <time>2021-12-09T09:50:11Z</time>
      </trkpt>
      <trkpt lat="43.34469" lon="2.42027">
        <ele>467.25390625</ele>
        <time>2021-12-09T09:50:18Z</time>
      </trkpt>
      <trkpt lat="43.34442" lon="2.4203">
        <ele>462.24609375</ele>
        <time>2021-12-09T09:50:25Z</time>
      </trkpt>
      <trkpt lat="43.34428" lon="2.42051">
        <ele>459.68359375</ele>
        <time>2021-12-09T09:50:33Z</time>
      </trkpt>
      <trkpt lat="43.34405" lon="2.42058">
        <ele>456.35546875</ele>
        <time>2021-12-09T09:50:39Z</time>
      </trkpt>
      <trkpt lat="43.34376" lon="2.42055">
        <ele>452.33984375</ele>
        <time>2021-12-09T09:50:51Z</time>
      </trkpt>
      <trkpt lat="43.34363" lon="2.42059">
        <ele>450.6953125</ele>
        <time>2021-12-09T09:50:58Z</time>
      </trkpt>
      <trkpt lat="43.34349" lon="2.42056">
        <ele>448.9375</ele>
        <time>2021-12-09T09:51:05Z</time>
      </trkpt>
      <trkpt lat="43.34332" lon="2.42057">
        <ele>447.15625</ele>
        <time>2021-12-09T09:51:13Z</time>
      </trkpt>
      <trkpt lat="43.3431" lon="2.42061">
        <ele>444.9765625</ele>
        <time>2021-12-09T09:51:21Z</time>
      </trkpt>
      <trkpt lat="43.343" lon="2.42058">
        <ele>443.5546875</ele>
        <time>2021-12-09T09:51:27Z</time>
      </trkpt>
      <trkpt lat="43.34295" lon="2.42045">
        <ele>442.140625</ele>
        <time>2021-12-09T09:51:32Z</time>
      </trkpt>
      <trkpt lat="43.34294" lon="2.42033">
        <ele>441.35546875</ele>
        <time>2021-12-09T09:51:34Z</time>
      </trkpt>
      <trkpt lat="43.34291" lon="2.42021">
        <ele>440.328125</ele>
        <time>2021-12-09T09:51:37Z</time>
      </trkpt>
      <trkpt lat="43.34294" lon="2.42">
        <ele>438.91796875</ele>
        <time>2021-12-09T09:51:38Z</time>
      </trkpt>
      <trkpt lat="43.34295" lon="2.42019">
        <ele>440.80078125</ele>
        <time>2021-12-09T09:51:39Z</time>
      </trkpt>
      <trkpt lat="43.34295" lon="2.41988">
        <ele>438.0703125</ele>
        <time>2021-12-09T09:51:47Z</time>
      </trkpt>
      <trkpt lat="43.34302" lon="2.41971">
        <ele>437.49609375</ele>
        <time>2021-12-09T09:51:53Z</time>
      </trkpt>
      <trkpt lat="43.34307" lon="2.41951">
        <ele>436.72265625</ele>
        <time>2021-12-09T09:52:00Z</time>
      </trkpt>
      <trkpt lat="43.34301" lon="2.41933">
        <ele>435.06640625</ele>
        <time>2021-12-09T09:52:06Z</time>
      </trkpt>
      <trkpt lat="43.34294" lon="2.41911">
        <ele>433.42578125</ele>
        <time>2021-12-09T09:52:14Z</time>
      </trkpt>
      <trkpt lat="43.34285" lon="2.4189">
        <ele>432.5390625</ele>
        <time>2021-12-09T09:52:21Z</time>
      </trkpt>
      <trkpt lat="43.34282" lon="2.41862">
        <ele>432.10546875</ele>
        <time>2021-12-09T09:52:29Z</time>
      </trkpt>
      <trkpt lat="43.34277" lon="2.4185">
        <ele>431.69140625</ele>
        <time>2021-12-09T09:52:34Z</time>
      </trkpt>
      <trkpt lat="43.34252" lon="2.41808">
        <ele>430.92578125</ele>
        <time>2021-12-09T09:52:47Z</time>
      </trkpt>
      <trkpt lat="43.34237" lon="2.41793">
        <ele>429.98828125</ele>
        <time>2021-12-09T09:52:54Z</time>
      </trkpt>
      <trkpt lat="43.34226" lon="2.41802">
        <ele>428.46875</ele>
        <time>2021-12-09T09:53:00Z</time>
      </trkpt>
      <trkpt lat="43.34217" lon="2.41797">
        <ele>427.6796875</ele>
        <time>2021-12-09T09:53:04Z</time>
      </trkpt>
      <trkpt lat="43.34208" lon="2.41795">
        <ele>426.6875</ele>
        <time>2021-12-09T09:53:08Z</time>
      </trkpt>
      <trkpt lat="43.34198" lon="2.41793">
        <ele>425.66015625</ele>
        <time>2021-12-09T09:53:12Z</time>
      </trkpt>
      <trkpt lat="43.34185" lon="2.41793">
        <ele>423.87109375</ele>
        <time>2021-12-09T09:53:19Z</time>
      </trkpt>
      <trkpt lat="43.34173" lon="2.41788">
        <ele>421.94140625</ele>
        <time>2021-12-09T09:53:25Z</time>
      </trkpt>
      <trkpt lat="43.34161" lon="2.41782">
        <ele>419.9140625</ele>
        <time>2021-12-09T09:53:32Z</time>
      </trkpt>
      <trkpt lat="43.34149" lon="2.41774">
        <ele>417.72265625</ele>
        <time>2021-12-09T09:53:40Z</time>
      </trkpt>
      <trkpt lat="43.34133" lon="2.41768">
        <ele>414.71875</ele>
        <time>2021-12-09T09:53:51Z</time>
      </trkpt>
      <trkpt lat="43.3411" lon="2.41763">
        <ele>410.53515625</ele>
        <time>2021-12-09T09:54:01Z</time>
      </trkpt>
      <trkpt lat="43.34094" lon="2.41761">
        <ele>407.73046875</ele>
        <time>2021-12-09T09:54:08Z</time>
      </trkpt>
      <trkpt lat="43.34075" lon="2.41764">
        <ele>404.64453125</ele>
        <time>2021-12-09T09:54:15Z</time>
      </trkpt>
      <trkpt lat="43.34064" lon="2.41763">
        <ele>402.91015625</ele>
        <time>2021-12-09T09:54:20Z</time>
      </trkpt>
      <trkpt lat="43.3405" lon="2.41766">
        <ele>400.53125</ele>
        <time>2021-12-09T09:54:26Z</time>
      </trkpt>
      <trkpt lat="43.34034" lon="2.41774">
        <ele>398.0546875</ele>
        <time>2021-12-09T09:54:32Z</time>
      </trkpt>
      <trkpt lat="43.34017" lon="2.4179">
        <ele>395.66015625</ele>
        <time>2021-12-09T09:54:40Z</time>
      </trkpt>
      <trkpt lat="43.34004" lon="2.41798">
        <ele>393.78125</ele>
        <time>2021-12-09T09:54:45Z</time>
      </trkpt>
      <trkpt lat="43.33994" lon="2.41797">
        <ele>392.38671875</ele>
        <time>2021-12-09T09:54:46Z</time>
      </trkpt>
      <trkpt lat="43.33985" lon="2.41796">
        <ele>391.078125</ele>
        <time>2021-12-09T09:54:47Z</time>
      </trkpt>
      <trkpt lat="43.33969" lon="2.41804">
        <ele>388.99609375</ele>
        <time>2021-12-09T09:54:50Z</time>
      </trkpt>
      <trkpt lat="43.33962" lon="2.41786">
        <ele>388.3125</ele>
        <time>2021-12-09T09:54:51Z</time>
      </trkpt>
      <trkpt lat="43.33958" lon="2.41766">
        <ele>388.359375</ele>
        <time>2021-12-09T09:54:57Z</time>
      </trkpt>
      <trkpt lat="43.33943" lon="2.41733">
        <ele>388.01171875</ele>
        <time>2021-12-09T09:55:15Z</time>
      </trkpt>
      <trkpt lat="43.33943" lon="2.41716">
        <ele>388.9375</ele>
        <time>2021-12-09T09:55:20Z</time>
      </trkpt>
      <trkpt lat="43.33935" lon="2.41709">
        <ele>388.671875</ele>
        <time>2021-12-09T09:55:26Z</time>
      </trkpt>
      <trkpt lat="43.33927" lon="2.41701">
        <ele>388.6875</ele>
        <time>2021-12-09T09:55:30Z</time>
      </trkpt>
      <trkpt lat="43.33922" lon="2.41701">
        <ele>388.39453125</ele>
        <time>2021-12-09T09:55:32Z</time>
      </trkpt>
      <trkpt lat="43.33908" lon="2.41709">
        <ele>386.87109375</ele>
        <time>2021-12-09T09:55:37Z</time>
      </trkpt>
      <trkpt lat="43.33897" lon="2.41707">
        <ele>386.33203125</ele>
        <time>2021-12-09T09:55:42Z</time>
      </trkpt>
      <trkpt lat="43.33888" lon="2.41706">
        <ele>385.83203125</ele>
        <time>2021-12-09T09:55:49Z</time>
      </trkpt>
      <trkpt lat="43.33876" lon="2.41713">
        <ele>384.64453125</ele>
        <time>2021-12-09T09:55:59Z</time>
      </trkpt>
      <trkpt lat="43.33872" lon="2.41714">
        <ele>384.30859375</ele>
        <time>2021-12-09T09:56:05Z</time>
      </trkpt>
      <trkpt lat="43.33864" lon="2.41709">
        <ele>384.1015625</ele>
        <time>2021-12-09T09:56:09Z</time>
      </trkpt>
      <trkpt lat="43.33853" lon="2.41706">
        <ele>382.98046875</ele>
        <time>2021-12-09T09:56:14Z</time>
      </trkpt>
      <trkpt lat="43.33843" lon="2.41704">
        <ele>381.55859375</ele>
        <time>2021-12-09T09:56:19Z</time>
      </trkpt>
      <trkpt lat="43.33829" lon="2.41713">
        <ele>378.5546875</ele>
        <time>2021-12-09T09:56:25Z</time>
      </trkpt>
      <trkpt lat="43.33821" lon="2.41705">
        <ele>377.99609375</ele>
        <time>2021-12-09T09:56:27Z</time>
      </trkpt>
      <trkpt lat="43.33815" lon="2.41693">
        <ele>378.00390625</ele>
        <time>2021-12-09T09:56:29Z</time>
      </trkpt>
      <trkpt lat="43.3381" lon="2.41694">
        <ele>377.21484375</ele>
        <time>2021-12-09T09:56:31Z</time>
      </trkpt>
      <trkpt lat="43.33808" lon="2.41666">
        <ele>378.90625</ele>
        <time>2021-12-09T09:56:33Z</time>
      </trkpt>
      <trkpt lat="43.33808" lon="2.41653">
        <ele>379.85546875</ele>
        <time>2021-12-09T09:56:41Z</time>
      </trkpt>
      <trkpt lat="43.3381" lon="2.41636">
        <ele>381.1484375</ele>
        <time>2021-12-09T09:56:48Z</time>
      </trkpt>
      <trkpt lat="43.33794" lon="2.41627">
        <ele>381.125</ele>
        <time>2021-12-09T09:56:54Z</time>
      </trkpt>
      <trkpt lat="43.3378" lon="2.41623">
        <ele>381.203125</ele>
        <time>2021-12-09T09:57:01Z</time>
      </trkpt>
      <trkpt lat="43.33764" lon="2.41628">
        <ele>381.0703125</ele>
        <time>2021-12-09T09:57:07Z</time>
      </trkpt>
      <trkpt lat="43.33753" lon="2.41629">
        <ele>381.0234375</ele>
        <time>2021-12-09T09:57:11Z</time>
      </trkpt>
      <trkpt lat="43.33729" lon="2.41641">
        <ele>380</ele>
        <time>2021-12-09T09:57:22Z</time>
      </trkpt>
      <trkpt lat="43.33711" lon="2.41656">
        <ele>379.51171875</ele>
        <time>2021-12-09T09:57:29Z</time>
      </trkpt>
      <trkpt lat="43.33697" lon="2.41671">
        <ele>379.65625</ele>
        <time>2021-12-09T09:57:36Z</time>
      </trkpt>
      <trkpt lat="43.33683" lon="2.41689">
        <ele>379.3984375</ele>
        <time>2021-12-09T09:57:44Z</time>
      </trkpt>
      <trkpt lat="43.33667" lon="2.4171">
        <ele>377.93359375</ele>
        <time>2021-12-09T09:57:53Z</time>
      </trkpt>
      <trkpt lat="43.33653" lon="2.41722">
        <ele>377.015625</ele>
        <time>2021-12-09T09:57:59Z</time>
      </trkpt>
      <trkpt lat="43.33639" lon="2.41733">
        <ele>376.20703125</ele>
        <time>2021-12-09T09:58:05Z</time>
      </trkpt>
      <trkpt lat="43.3362" lon="2.41743">
        <ele>374.6796875</ele>
        <time>2021-12-09T09:58:12Z</time>
      </trkpt>
      <trkpt lat="43.33602" lon="2.4175">
        <ele>373.2421875</ele>
        <time>2021-12-09T09:58:19Z</time>
      </trkpt>
      <trkpt lat="43.33582" lon="2.4176">
        <ele>371.7109375</ele>
        <time>2021-12-09T09:58:26Z</time>
      </trkpt>
      <trkpt lat="43.33564" lon="2.41768">
        <ele>370.2578125</ele>
        <time>2021-12-09T09:58:33Z</time>
      </trkpt>
      <trkpt lat="43.33548" lon="2.41778">
        <ele>368.9140625</ele>
        <time>2021-12-09T09:58:39Z</time>
      </trkpt>
      <trkpt lat="43.33534" lon="2.41785">
        <ele>367.7734375</ele>
        <time>2021-12-09T09:58:44Z</time>
      </trkpt>
      <trkpt lat="43.3352" lon="2.41793">
        <ele>366.59375</ele>
        <time>2021-12-09T09:58:50Z</time>
      </trkpt>
      <trkpt lat="43.33499" lon="2.41804">
        <ele>364.765625</ele>
        <time>2021-12-09T09:58:58Z</time>
      </trkpt>
      <trkpt lat="43.33483" lon="2.41811">
        <ele>363.34765625</ele>
        <time>2021-12-09T09:59:04Z</time>
      </trkpt>
      <trkpt lat="43.33466" lon="2.41787">
        <ele>362.984375</ele>
        <time>2021-12-09T09:59:11Z</time>
      </trkpt>
      <trkpt lat="43.33448" lon="2.41788">
        <ele>362.93359375</ele>
        <time>2021-12-09T09:59:18Z</time>
      </trkpt>
      <trkpt lat="43.33428" lon="2.41794">
        <ele>362.953125</ele>
        <time>2021-12-09T09:59:25Z</time>
      </trkpt>
      <trkpt lat="43.33419" lon="2.41797">
        <ele>362.9921875</ele>
        <time>2021-12-09T09:59:30Z</time>
      </trkpt>
      <trkpt lat="43.33405" lon="2.418">
        <ele>363.44140625</ele>
        <time>2021-12-09T09:59:36Z</time>
      </trkpt>
      <trkpt lat="43.33391" lon="2.41808">
        <ele>363.921875</ele>
        <time>2021-12-09T09:59:42Z</time>
      </trkpt>
      <trkpt lat="43.3338" lon="2.41814">
        <ele>364.31640625</ele>
        <time>2021-12-09T09:59:47Z</time>
      </trkpt>
      <trkpt lat="43.33371" lon="2.41818">
        <ele>364.63671875</ele>
        <time>2021-12-09T09:59:51Z</time>
      </trkpt>
      <trkpt lat="43.33361" lon="2.41825">
        <ele>364.9375</ele>
        <time>2021-12-09T09:59:56Z</time>
      </trkpt>
      <trkpt lat="43.33345" lon="2.41835">
        <ele>365.265625</ele>
        <time>2021-12-09T10:00:02Z</time>
      </trkpt>
      <trkpt lat="43.33331" lon="2.41841">
        <ele>365.74609375</ele>
        <time>2021-12-09T10:00:08Z</time>
      </trkpt>
      <trkpt lat="43.33315" lon="2.41845">
        <ele>366.45703125</ele>
        <time>2021-12-09T10:00:14Z</time>
      </trkpt>
      <trkpt lat="43.33303" lon="2.41847">
        <ele>367</ele>
        <time>2021-12-09T10:00:19Z</time>
      </trkpt>
      <trkpt lat="43.33291" lon="2.41855">
        <ele>366.89453125</ele>
        <time>2021-12-09T10:00:26Z</time>
      </trkpt>
      <trkpt lat="43.3328" lon="2.41858">
        <ele>366.7578125</ele>
        <time>2021-12-09T10:00:32Z</time>
      </trkpt>
      <trkpt lat="43.33266" lon="2.41863">
        <ele>366.5859375</ele>
        <time>2021-12-09T10:00:39Z</time>
      </trkpt>
      <trkpt lat="43.33249" lon="2.41868">
        <ele>366.44140625</ele>
        <time>2021-12-09T10:00:45Z</time>
      </trkpt>
      <trkpt lat="43.33233" lon="2.41872">
        <ele>365.55859375</ele>
        <time>2021-12-09T10:00:51Z</time>
      </trkpt>
      <trkpt lat="43.33214" lon="2.41874">
        <ele>364.609375</ele>
        <time>2021-12-09T10:00:57Z</time>
      </trkpt>
      <trkpt lat="43.33197" lon="2.41869">
        <ele>363.90234375</ele>
        <time>2021-12-09T10:01:04Z</time>
      </trkpt>
      <trkpt lat="43.33181" lon="2.41857">
        <ele>362.80859375</ele>
        <time>2021-12-09T10:01:12Z</time>
      </trkpt>
      <trkpt lat="43.33158" lon="2.41848">
        <ele>360.6875</ele>
        <time>2021-12-09T10:01:20Z</time>
      </trkpt>
      <trkpt lat="43.33137" lon="2.41835">
        <ele>358.34375</ele>
        <time>2021-12-09T10:01:28Z</time>
      </trkpt>
      <trkpt lat="43.33125" lon="2.41829">
        <ele>356.55859375</ele>
        <time>2021-12-09T10:01:34Z</time>
      </trkpt>
      <trkpt lat="43.33114" lon="2.41825">
        <ele>355.015625</ele>
        <time>2021-12-09T10:01:40Z</time>
      </trkpt>
      <trkpt lat="43.33095" lon="2.41811">
        <ele>352.0859375</ele>
        <time>2021-12-09T10:01:46Z</time>
      </trkpt>
      <trkpt lat="43.33092" lon="2.41792">
        <ele>350.42578125</ele>
        <time>2021-12-09T10:01:53Z</time>
      </trkpt>
      <trkpt lat="43.33081" lon="2.41783">
        <ele>347.3984375</ele>
        <time>2021-12-09T10:01:59Z</time>
      </trkpt>
      <trkpt lat="43.33072" lon="2.41774">
        <ele>343.40625</ele>
        <time>2021-12-09T10:02:05Z</time>
      </trkpt>
      <trkpt lat="43.33052" lon="2.41783">
        <ele>339.4765625</ele>
        <time>2021-12-09T10:02:11Z</time>
      </trkpt>
      <trkpt lat="43.33044" lon="2.41789">
        <ele>338.234375</ele>
        <time>2021-12-09T10:02:17Z</time>
      </trkpt>
      <trkpt lat="43.33029" lon="2.418">
        <ele>335.80859375</ele>
        <time>2021-12-09T10:02:29Z</time>
      </trkpt>
      <trkpt lat="43.3302" lon="2.41818">
        <ele>335.4375</ele>
        <time>2021-12-09T10:02:35Z</time>
      </trkpt>
      <trkpt lat="43.33006" lon="2.41825">
        <ele>332.94921875</ele>
        <time>2021-12-09T10:02:43Z</time>
      </trkpt>
      <trkpt lat="43.32987" lon="2.41818">
        <ele>327.75</ele>
        <time>2021-12-09T10:02:49Z</time>
      </trkpt>
      <trkpt lat="43.32976" lon="2.41821">
        <ele>325.6328125</ele>
        <time>2021-12-09T10:02:55Z</time>
      </trkpt>
      <trkpt lat="43.32967" lon="2.41835">
        <ele>325.28125</ele>
        <time>2021-12-09T10:03:06Z</time>
      </trkpt>
      <trkpt lat="43.32962" lon="2.41847">
        <ele>325.6328125</ele>
        <time>2021-12-09T10:03:12Z</time>
      </trkpt>
      <trkpt lat="43.32954" lon="2.41854">
        <ele>324.65234375</ele>
        <time>2021-12-09T10:03:16Z</time>
      </trkpt>
      <trkpt lat="43.32942" lon="2.41873">
        <ele>322.49609375</ele>
        <time>2021-12-09T10:03:19Z</time>
      </trkpt>
      <trkpt lat="43.32939" lon="2.41895">
        <ele>322.140625</ele>
        <time>2021-12-09T10:03:20Z</time>
      </trkpt>
      <trkpt lat="43.3293" lon="2.41891">
        <ele>320.3203125</ele>
        <time>2021-12-09T10:03:27Z</time>
      </trkpt>
      <trkpt lat="43.32923" lon="2.41859">
        <ele>318.5</ele>
        <time>2021-12-09T10:03:33Z</time>
      </trkpt>
      <trkpt lat="43.3292" lon="2.41845">
        <ele>316.9921875</ele>
        <time>2021-12-09T10:03:36Z</time>
      </trkpt>
      <trkpt lat="43.32919" lon="2.41833">
        <ele>315.3359375</ele>
        <time>2021-12-09T10:03:38Z</time>
      </trkpt>
      <trkpt lat="43.32903" lon="2.4183">
        <ele>313.51953125</ele>
        <time>2021-12-09T10:03:45Z</time>
      </trkpt>
      <trkpt lat="43.32894" lon="2.4183">
        <ele>312.953125</ele>
        <time>2021-12-09T10:03:52Z</time>
      </trkpt>
      <trkpt lat="43.32882" lon="2.41835">
        <ele>312.9765625</ele>
        <time>2021-12-09T10:03:57Z</time>
      </trkpt>
      <trkpt lat="43.32872" lon="2.41843">
        <ele>313.4140625</ele>
        <time>2021-12-09T10:04:01Z</time>
      </trkpt>
      <trkpt lat="43.32858" lon="2.41855">
        <ele>313.953125</ele>
        <time>2021-12-09T10:04:08Z</time>
      </trkpt>
      <trkpt lat="43.32843" lon="2.41867">
        <ele>313.69140625</ele>
        <time>2021-12-09T10:04:14Z</time>
      </trkpt>
      <trkpt lat="43.32826" lon="2.4188">
        <ele>313.37890625</ele>
        <time>2021-12-09T10:04:20Z</time>
      </trkpt>
      <trkpt lat="43.32812" lon="2.4189">
        <ele>313.1328125</ele>
        <time>2021-12-09T10:04:25Z</time>
      </trkpt>
      <trkpt lat="43.32798" lon="2.41898">
        <ele>312.76171875</ele>
        <time>2021-12-09T10:04:31Z</time>
      </trkpt>
      <trkpt lat="43.3278" lon="2.41911">
        <ele>311.84375</ele>
        <time>2021-12-09T10:04:39Z</time>
      </trkpt>
      <trkpt lat="43.32765" lon="2.41929">
        <ele>309.55859375</ele>
        <time>2021-12-09T10:04:45Z</time>
      </trkpt>
      <trkpt lat="43.32754" lon="2.41935">
        <ele>308.3828125</ele>
        <time>2021-12-09T10:04:51Z</time>
      </trkpt>
      <trkpt lat="43.32742" lon="2.4194">
        <ele>306.84765625</ele>
        <time>2021-12-09T10:04:56Z</time>
      </trkpt>
      <trkpt lat="43.32726" lon="2.41941">
        <ele>305.140625</ele>
        <time>2021-12-09T10:05:03Z</time>
      </trkpt>
      <trkpt lat="43.32715" lon="2.4194">
        <ele>304.0546875</ele>
        <time>2021-12-09T10:05:07Z</time>
      </trkpt>
      <trkpt lat="43.32705" lon="2.41939">
        <ele>303.19140625</ele>
        <time>2021-12-09T10:05:12Z</time>
      </trkpt>
      <trkpt lat="43.32696" lon="2.41936">
        <ele>302.79296875</ele>
        <time>2021-12-09T10:05:17Z</time>
      </trkpt>
      <trkpt lat="43.32685" lon="2.41932">
        <ele>302.34765625</ele>
        <time>2021-12-09T10:05:21Z</time>
      </trkpt>
      <trkpt lat="43.32676" lon="2.41925">
        <ele>302.41796875</ele>
        <time>2021-12-09T10:05:26Z</time>
      </trkpt>
      <trkpt lat="43.32666" lon="2.41917">
        <ele>302.625</ele>
        <time>2021-12-09T10:05:31Z</time>
      </trkpt>
      <trkpt lat="43.3265" lon="2.41917">
        <ele>301.02734375</ele>
        <time>2021-12-09T10:05:38Z</time>
      </trkpt>
      <trkpt lat="43.32638" lon="2.41924">
        <ele>298.8125</ele>
        <time>2021-12-09T10:05:41Z</time>
      </trkpt>
      <trkpt lat="43.32611" lon="2.4193">
        <ele>294.82421875</ele>
        <time>2021-12-09T10:05:49Z</time>
      </trkpt>
      <trkpt lat="43.32602" lon="2.41931">
        <ele>293.765625</ele>
        <time>2021-12-09T10:05:54Z</time>
      </trkpt>
      <trkpt lat="43.32592" lon="2.41937">
        <ele>292.859375</ele>
        <time>2021-12-09T10:06:00Z</time>
      </trkpt>
      <trkpt lat="43.32582" lon="2.41944">
        <ele>292.55078125</ele>
        <time>2021-12-09T10:06:05Z</time>
      </trkpt>
      <trkpt lat="43.32569" lon="2.41962">
        <ele>292.80078125</ele>
        <time>2021-12-09T10:06:10Z</time>
      </trkpt>
      <trkpt lat="43.32561" lon="2.4197">
        <ele>290.671875</ele>
        <time>2021-12-09T10:06:13Z</time>
      </trkpt>
      <trkpt lat="43.32543" lon="2.41979">
        <ele>287.73046875</ele>
        <time>2021-12-09T10:06:21Z</time>
      </trkpt>
      <trkpt lat="43.32532" lon="2.41982">
        <ele>286.90625</ele>
        <time>2021-12-09T10:06:26Z</time>
      </trkpt>
      <trkpt lat="43.32524" lon="2.41987">
        <ele>285.06640625</ele>
        <time>2021-12-09T10:06:30Z</time>
      </trkpt>
      <trkpt lat="43.32502" lon="2.42006">
        <ele>277.69140625</ele>
        <time>2021-12-09T10:06:40Z</time>
      </trkpt>
      <trkpt lat="43.3249" lon="2.42005">
        <ele>275.38671875</ele>
        <time>2021-12-09T10:06:48Z</time>
      </trkpt>
      <trkpt lat="43.32481" lon="2.42004">
        <ele>273.78125</ele>
        <time>2021-12-09T10:06:54Z</time>
      </trkpt>
      <trkpt lat="43.32471" lon="2.42003">
        <ele>271.6484375</ele>
        <time>2021-12-09T10:07:06Z</time>
      </trkpt>
      <trkpt lat="43.32462" lon="2.41998">
        <ele>269.69140625</ele>
        <time>2021-12-09T10:07:13Z</time>
      </trkpt>
      <trkpt lat="43.32453" lon="2.42005">
        <ele>266.8203125</ele>
        <time>2021-12-09T10:07:17Z</time>
      </trkpt>
      <trkpt lat="43.32441" lon="2.42022">
        <ele>262.8515625</ele>
        <time>2021-12-09T10:07:24Z</time>
      </trkpt>
      <trkpt lat="43.32434" lon="2.42029">
        <ele>260.125</ele>
        <time>2021-12-09T10:07:33Z</time>
      </trkpt>
      <trkpt lat="43.32428" lon="2.42027">
        <ele>258.91015625</ele>
        <time>2021-12-09T10:07:48Z</time>
      </trkpt>
      <trkpt lat="43.32422" lon="2.42016">
        <ele>258.5625</ele>
        <time>2021-12-09T10:07:53Z</time>
      </trkpt>
      <trkpt lat="43.32413" lon="2.42012">
        <ele>256.3828125</ele>
        <time>2021-12-09T10:07:59Z</time>
      </trkpt>
      <trkpt lat="43.324" lon="2.4202">
        <ele>253.296875</ele>
        <time>2021-12-09T10:08:09Z</time>
      </trkpt>
      <trkpt lat="43.32392" lon="2.42024">
        <ele>251.1328125</ele>
        <time>2021-12-09T10:08:21Z</time>
      </trkpt>
      <trkpt lat="43.32382" lon="2.42025">
        <ele>248.72265625</ele>
        <time>2021-12-09T10:08:28Z</time>
      </trkpt>
      <trkpt lat="43.32372" lon="2.42025">
        <ele>246.48046875</ele>
        <time>2021-12-09T10:08:32Z</time>
      </trkpt>
      <trkpt lat="43.32362" lon="2.42027">
        <ele>244.1328125</ele>
        <time>2021-12-09T10:08:36Z</time>
      </trkpt>
      <trkpt lat="43.32345" lon="2.42033">
        <ele>242.48828125</ele>
        <time>2021-12-09T10:08:45Z</time>
      </trkpt>
      <trkpt lat="43.32326" lon="2.42052">
        <ele>240.20703125</ele>
        <time>2021-12-09T10:08:55Z</time>
      </trkpt>
      <trkpt lat="43.32315" lon="2.42063">
        <ele>238.69921875</ele>
        <time>2021-12-09T10:09:00Z</time>
      </trkpt>
      <trkpt lat="43.32302" lon="2.42074">
        <ele>237.09765625</ele>
        <time>2021-12-09T10:09:06Z</time>
      </trkpt>
      <trkpt lat="43.32283" lon="2.42083">
        <ele>236.8515625</ele>
        <time>2021-12-09T10:09:14Z</time>
      </trkpt>
      <trkpt lat="43.32272" lon="2.42085">
        <ele>236.765625</ele>
        <time>2021-12-09T10:09:20Z</time>
      </trkpt>
      <trkpt lat="43.32261" lon="2.42089">
        <ele>236.46875</ele>
        <time>2021-12-09T10:09:24Z</time>
      </trkpt>
      <trkpt lat="43.32241" lon="2.42099">
        <ele>235.34765625</ele>
        <time>2021-12-09T10:09:32Z</time>
      </trkpt>
      <trkpt lat="43.32231" lon="2.421">
        <ele>235.125</ele>
        <time>2021-12-09T10:09:35Z</time>
      </trkpt>
      <trkpt lat="43.32215" lon="2.4211">
        <ele>233.77734375</ele>
        <time>2021-12-09T10:09:42Z</time>
      </trkpt>
      <trkpt lat="43.32204" lon="2.42104">
        <ele>234.421875</ele>
        <time>2021-12-09T10:09:46Z</time>
      </trkpt>
      <trkpt lat="43.32195" lon="2.42099">
        <ele>234.98828125</ele>
        <time>2021-12-09T10:09:51Z</time>
      </trkpt>
      <trkpt lat="43.3219" lon="2.42095">
        <ele>235.08984375</ele>
        <time>2021-12-09T10:09:54Z</time>
      </trkpt>
      <trkpt lat="43.32179" lon="2.42095">
        <ele>234.1484375</ele>
        <time>2021-12-09T10:09:58Z</time>
      </trkpt>
      <trkpt lat="43.32157" lon="2.42095">
        <ele>232.296875</ele>
        <time>2021-12-09T10:10:06Z</time>
      </trkpt>
      <trkpt lat="43.32136" lon="2.42092">
        <ele>230.6484375</ele>
        <time>2021-12-09T10:10:14Z</time>
      </trkpt>
      <trkpt lat="43.32118" lon="2.42088">
        <ele>230.28515625</ele>
        <time>2021-12-09T10:10:21Z</time>
      </trkpt>
      <trkpt lat="43.32102" lon="2.42082">
        <ele>229.5</ele>
        <time>2021-12-09T10:10:28Z</time>
      </trkpt>
      <trkpt lat="43.32093" lon="2.42073">
        <ele>228.578125</ele>
        <time>2021-12-09T10:10:34Z</time>
      </trkpt>
      <trkpt lat="43.32078" lon="2.42043">
        <ele>228.91796875</ele>
        <time>2021-12-09T10:10:41Z</time>
      </trkpt>
      <trkpt lat="43.32068" lon="2.42021">
        <ele>228.79296875</ele>
        <time>2021-12-09T10:10:48Z</time>
      </trkpt>
      <trkpt lat="43.32061" lon="2.41998">
        <ele>229.859375</ele>
        <time>2021-12-09T10:10:54Z</time>
      </trkpt>
      <trkpt lat="43.32051" lon="2.41971">
        <ele>230.1484375</ele>
        <time>2021-12-09T10:11:02Z</time>
      </trkpt>
      <trkpt lat="43.32042" lon="2.41956">
        <ele>230.9296875</ele>
        <time>2021-12-09T10:11:08Z</time>
      </trkpt>
      <trkpt lat="43.32027" lon="2.41944">
        <ele>231.921875</ele>
        <time>2021-12-09T10:11:10Z</time>
      </trkpt>
      <trkpt lat="43.32029" lon="2.41962">
        <ele>227.796875</ele>
        <time>2021-12-09T10:11:12Z</time>
      </trkpt>
      <trkpt lat="43.32019" lon="2.41969">
        <ele>226.80859375</ele>
        <time>2021-12-09T10:11:15Z</time>
      </trkpt>
      <trkpt lat="43.32004" lon="2.41983">
        <ele>226.51953125</ele>
        <time>2021-12-09T10:11:23Z</time>
      </trkpt>
      <trkpt lat="43.31988" lon="2.41983">
        <ele>225.9296875</ele>
        <time>2021-12-09T10:11:30Z</time>
      </trkpt>
      <trkpt lat="43.31973" lon="2.41984">
        <ele>225.41796875</ele>
        <time>2021-12-09T10:11:36Z</time>
      </trkpt>
      <trkpt lat="43.31963" lon="2.41987">
        <ele>224.82421875</ele>
        <time>2021-12-09T10:11:42Z</time>
      </trkpt>
      <trkpt lat="43.31954" lon="2.41991">
        <ele>224.23828125</ele>
        <time>2021-12-09T10:11:46Z</time>
      </trkpt>
      <trkpt lat="43.31946" lon="2.41999">
        <ele>223.51171875</ele>
        <time>2021-12-09T10:11:52Z</time>
      </trkpt>
      <trkpt lat="43.31934" lon="2.42009">
        <ele>222.23046875</ele>
        <time>2021-12-09T10:12:00Z</time>
      </trkpt>
      <trkpt lat="43.31923" lon="2.42027">
        <ele>221.41015625</ele>
        <time>2021-12-09T10:12:07Z</time>
      </trkpt>
      <trkpt lat="43.31912" lon="2.42038">
        <ele>221.5078125</ele>
        <time>2021-12-09T10:12:14Z</time>
      </trkpt>
      <trkpt lat="43.31895" lon="2.42048">
        <ele>221.25</ele>
        <time>2021-12-09T10:12:20Z</time>
      </trkpt>
      <trkpt lat="43.31888" lon="2.4204">
        <ele>220.41015625</ele>
        <time>2021-12-09T10:12:21Z</time>
      </trkpt>
      <trkpt lat="43.3188" lon="2.4205">
        <ele>220.328125</ele>
        <time>2021-12-09T10:12:25Z</time>
      </trkpt>
      <trkpt lat="43.31869" lon="2.4207">
        <ele>219.8515625</ele>
        <time>2021-12-09T10:12:32Z</time>
      </trkpt>
      <trkpt lat="43.31866" lon="2.42085">
        <ele>220.55859375</ele>
        <time>2021-12-09T10:12:40Z</time>
      </trkpt>
      <trkpt lat="43.3186" lon="2.42098">
        <ele>221.09765625</ele>
        <time>2021-12-09T10:12:47Z</time>
      </trkpt>
      <trkpt lat="43.31847" lon="2.42114">
        <ele>221.0234375</ele>
        <time>2021-12-09T10:12:55Z</time>
      </trkpt>
      <trkpt lat="43.31834" lon="2.4213">
        <ele>220.6796875</ele>
        <time>2021-12-09T10:13:02Z</time>
      </trkpt>
      <trkpt lat="43.31825" lon="2.42143">
        <ele>220.5</ele>
        <time>2021-12-09T10:13:04Z</time>
      </trkpt>
      <trkpt lat="43.31814" lon="2.42151">
        <ele>219.85546875</ele>
        <time>2021-12-09T10:13:05Z</time>
      </trkpt>
      <trkpt lat="43.31786" lon="2.42174">
        <ele>219.7890625</ele>
        <time>2021-12-09T10:13:13Z</time>
      </trkpt>
      <trkpt lat="43.31767" lon="2.42187">
        <ele>219.9921875</ele>
        <time>2021-12-09T10:13:19Z</time>
      </trkpt>
      <trkpt lat="43.31751" lon="2.42196">
        <ele>219.61328125</ele>
        <time>2021-12-09T10:13:26Z</time>
      </trkpt>
      <trkpt lat="43.31733" lon="2.42201">
        <ele>219.83203125</ele>
        <time>2021-12-09T10:13:34Z</time>
      </trkpt>
      <trkpt lat="43.31717" lon="2.42196">
        <ele>219.55859375</ele>
        <time>2021-12-09T10:13:40Z</time>
      </trkpt>
      <trkpt lat="43.31706" lon="2.42192">
        <ele>219.3125</ele>
        <time>2021-12-09T10:13:41Z</time>
      </trkpt>
      <trkpt lat="43.31694" lon="2.42173">
        <ele>217.625</ele>
        <time>2021-12-09T10:13:49Z</time>
      </trkpt>
      <trkpt lat="43.31687" lon="2.42153">
        <ele>215.30859375</ele>
        <time>2021-12-09T10:13:56Z</time>
      </trkpt>
      <trkpt lat="43.31681" lon="2.42133">
        <ele>213.25</ele>
        <time>2021-12-09T10:14:02Z</time>
      </trkpt>
      <trkpt lat="43.31667" lon="2.4213">
        <ele>213.0078125</ele>
        <time>2021-12-09T10:14:08Z</time>
      </trkpt>
      <trkpt lat="43.31653" lon="2.42132">
        <ele>213.11328125</ele>
        <time>2021-12-09T10:14:14Z</time>
      </trkpt>
      <trkpt lat="43.31638" lon="2.42138">
        <ele>213.53515625</ele>
        <time>2021-12-09T10:14:20Z</time>
      </trkpt>
      <trkpt lat="43.31626" lon="2.42144">
        <ele>213.62109375</ele>
        <time>2021-12-09T10:14:25Z</time>
      </trkpt>
      <trkpt lat="43.31605" lon="2.42153">
        <ele>213.55859375</ele>
        <time>2021-12-09T10:14:32Z</time>
      </trkpt>
      <trkpt lat="43.31592" lon="2.42155">
        <ele>213.19140625</ele>
        <time>2021-12-09T10:14:37Z</time>
      </trkpt>
      <trkpt lat="43.31575" lon="2.42146">
        <ele>212.2890625</ele>
        <time>2021-12-09T10:14:43Z</time>
      </trkpt>
      <trkpt lat="43.31553" lon="2.42154">
        <ele>211.609375</ele>
        <time>2021-12-09T10:14:49Z</time>
      </trkpt>
      <trkpt lat="43.3153" lon="2.42163">
        <ele>210.5078125</ele>
        <time>2021-12-09T10:14:55Z</time>
      </trkpt>
      <trkpt lat="43.31498" lon="2.42178">
        <ele>209.1484375</ele>
        <time>2021-12-09T10:15:04Z</time>
      </trkpt>
      <trkpt lat="43.3148" lon="2.42188">
        <ele>208.2578125</ele>
        <time>2021-12-09T10:15:10Z</time>
      </trkpt>
      <trkpt lat="43.31457" lon="2.42206">
        <ele>207.0859375</ele>
        <time>2021-12-09T10:15:18Z</time>
      </trkpt>
      <trkpt lat="43.31441" lon="2.42221">
        <ele>206.23046875</ele>
        <time>2021-12-09T10:15:25Z</time>
      </trkpt>
      <trkpt lat="43.31425" lon="2.42231">
        <ele>205.49609375</ele>
        <time>2021-12-09T10:15:32Z</time>
      </trkpt>
      <trkpt lat="43.31408" lon="2.42237">
        <ele>204.765625</ele>
        <time>2021-12-09T10:15:39Z</time>
      </trkpt>
      <trkpt lat="43.31389" lon="2.42245">
        <ele>204.10546875</ele>
        <time>2021-12-09T10:15:46Z</time>
      </trkpt>
      <trkpt lat="43.31375" lon="2.42252">
        <ele>203.84375</ele>
        <time>2021-12-09T10:15:52Z</time>
      </trkpt>
      <trkpt lat="43.31356" lon="2.4226">
        <ele>203.5234375</ele>
        <time>2021-12-09T10:15:59Z</time>
      </trkpt>
      <trkpt lat="43.31347" lon="2.42264">
        <ele>203.390625</ele>
        <time>2021-12-09T10:16:03Z</time>
      </trkpt>
      <trkpt lat="43.31325" lon="2.42268">
        <ele>202.97265625</ele>
        <time>2021-12-09T10:16:10Z</time>
      </trkpt>
      <trkpt lat="43.31317" lon="2.42274">
        <ele>203.06640625</ele>
        <time>2021-12-09T10:16:12Z</time>
      </trkpt>
      <trkpt lat="43.31308" lon="2.42268">
        <ele>202.52734375</ele>
        <time>2021-12-09T10:16:16Z</time>
      </trkpt>
      <trkpt lat="43.31302" lon="2.42269">
        <ele>202.54296875</ele>
        <time>2021-12-09T10:16:18Z</time>
      </trkpt>
      <trkpt lat="43.31301" lon="2.4227">
        <ele>202.625</ele>
        <time>2021-12-09T10:16:20Z</time>
      </trkpt>
      <trkpt lat="43.31283" lon="2.42262">
        <ele>202.515625</ele>
        <time>2021-12-09T10:16:27Z</time>
      </trkpt>
      <trkpt lat="43.31262" lon="2.42258">
        <ele>202.66015625</ele>
        <time>2021-12-09T10:16:33Z</time>
      </trkpt>
      <trkpt lat="43.31253" lon="2.42257">
        <ele>202.8125</ele>
        <time>2021-12-09T10:16:41Z</time>
      </trkpt>
      <trkpt lat="43.31246" lon="2.42249">
        <ele>202.6796875</ele>
        <time>2021-12-09T10:16:43Z</time>
      </trkpt>
      <trkpt lat="43.31219" lon="2.42242">
        <ele>203.76171875</ele>
        <time>2021-12-09T10:16:53Z</time>
      </trkpt>
      <trkpt lat="43.31208" lon="2.42233">
        <ele>203.69921875</ele>
        <time>2021-12-09T10:16:55Z</time>
      </trkpt>
      <trkpt lat="43.31197" lon="2.42238">
        <ele>204.55859375</ele>
        <time>2021-12-09T10:17:00Z</time>
      </trkpt>
      <trkpt lat="43.31191" lon="2.42236">
        <ele>205.1640625</ele>
        <time>2021-12-09T10:17:02Z</time>
      </trkpt>
      <trkpt lat="43.31181" lon="2.42235">
        <ele>206.69921875</ele>
        <time>2021-12-09T10:17:04Z</time>
      </trkpt>
      <trkpt lat="43.3117" lon="2.42229">
        <ele>207.87109375</ele>
        <time>2021-12-09T10:17:07Z</time>
      </trkpt>
      <trkpt lat="43.3116" lon="2.4222">
        <ele>208.02734375</ele>
        <time>2021-12-09T10:17:11Z</time>
      </trkpt>
      <trkpt lat="43.31149" lon="2.42199">
        <ele>206.34375</ele>
        <time>2021-12-09T10:17:18Z</time>
      </trkpt>
      <trkpt lat="43.31148" lon="2.4217">
        <ele>202.75390625</ele>
        <time>2021-12-09T10:17:23Z</time>
      </trkpt>
      <trkpt lat="43.31145" lon="2.42159">
        <ele>201.8125</ele>
        <time>2021-12-09T10:17:26Z</time>
      </trkpt>
      <trkpt lat="43.31127" lon="2.42146">
        <ele>200.90625</ele>
        <time>2021-12-09T10:17:33Z</time>
      </trkpt>
      <trkpt lat="43.31109" lon="2.42139">
        <ele>200.22265625</ele>
        <time>2021-12-09T10:17:39Z</time>
      </trkpt>
      <trkpt lat="43.31093" lon="2.42129">
        <ele>199.015625</ele>
        <time>2021-12-09T10:17:46Z</time>
      </trkpt>
      <trkpt lat="43.31073" lon="2.42119">
        <ele>199.171875</ele>
        <time>2021-12-09T10:17:53Z</time>
      </trkpt>
      <trkpt lat="43.31058" lon="2.42114">
        <ele>199.15625</ele>
        <time>2021-12-09T10:17:58Z</time>
      </trkpt>
      <trkpt lat="43.31048" lon="2.42111">
        <ele>199.125</ele>
        <time>2021-12-09T10:18:02Z</time>
      </trkpt>
      <trkpt lat="43.31034" lon="2.42106">
        <ele>199.05078125</ele>
        <time>2021-12-09T10:18:09Z</time>
      </trkpt>
      <trkpt lat="43.31019" lon="2.42104">
        <ele>198.9375</ele>
        <time>2021-12-09T10:18:15Z</time>
      </trkpt>
      <trkpt lat="43.30998" lon="2.42109">
        <ele>198.91015625</ele>
        <time>2021-12-09T10:18:23Z</time>
      </trkpt>
      <trkpt lat="43.30981" lon="2.42105">
        <ele>198.6796875</ele>
        <time>2021-12-09T10:18:29Z</time>
      </trkpt>
      <trkpt lat="43.30966" lon="2.42097">
        <ele>198.1875</ele>
        <time>2021-12-09T10:18:34Z</time>
      </trkpt>
      <trkpt lat="43.30956" lon="2.4209">
        <ele>197.7109375</ele>
        <time>2021-12-09T10:18:38Z</time>
      </trkpt>
      <trkpt lat="43.30946" lon="2.42085">
        <ele>197.27734375</ele>
        <time>2021-12-09T10:18:42Z</time>
      </trkpt>
      <trkpt lat="43.30929" lon="2.42074">
        <ele>196.234375</ele>
        <time>2021-12-09T10:18:49Z</time>
      </trkpt>
      <trkpt lat="43.30912" lon="2.42062">
        <ele>196.1484375</ele>
        <time>2021-12-09T10:18:56Z</time>
      </trkpt>
      <trkpt lat="43.30901" lon="2.42057">
        <ele>196.03515625</ele>
        <time>2021-12-09T10:19:02Z</time>
      </trkpt>
      <trkpt lat="43.30889" lon="2.42053">
        <ele>195.88671875</ele>
        <time>2021-12-09T10:19:08Z</time>
      </trkpt>
      <trkpt lat="43.30871" lon="2.42055">
        <ele>195.52734375</ele>
        <time>2021-12-09T10:19:14Z</time>
      </trkpt>
      <trkpt lat="43.30862" lon="2.42056">
        <ele>195.3359375</ele>
        <time>2021-12-09T10:19:17Z</time>
      </trkpt>
      <trkpt lat="43.30849" lon="2.4206">
        <ele>195.046875</ele>
        <time>2021-12-09T10:19:22Z</time>
      </trkpt>
      <trkpt lat="43.30831" lon="2.42067">
        <ele>194.59765625</ele>
        <time>2021-12-09T10:19:28Z</time>
      </trkpt>
      <trkpt lat="43.3082" lon="2.42072">
        <ele>194.30859375</ele>
        <time>2021-12-09T10:19:32Z</time>
      </trkpt>
      <trkpt lat="43.30799" lon="2.42076">
        <ele>194.0078125</ele>
        <time>2021-12-09T10:19:40Z</time>
      </trkpt>
      <trkpt lat="43.30783" lon="2.42078">
        <ele>193.85546875</ele>
        <time>2021-12-09T10:19:47Z</time>
      </trkpt>
      <trkpt lat="43.30769" lon="2.42078">
        <ele>193.5546875</ele>
        <time>2021-12-09T10:19:54Z</time>
      </trkpt>
      <trkpt lat="43.30762" lon="2.42096">
        <ele>194.73828125</ele>
        <time>2021-12-09T10:19:56Z</time>
      </trkpt>
      <trkpt lat="43.3075" lon="2.42096">
        <ele>194.59765625</ele>
        <time>2021-12-09T10:19:58Z</time>
      </trkpt>
      <trkpt lat="43.30729" lon="2.42093">
        <ele>196.05859375</ele>
        <time>2021-12-09T10:20:04Z</time>
      </trkpt>
      <trkpt lat="43.30721" lon="2.42079">
        <ele>195.4609375</ele>
        <time>2021-12-09T10:20:09Z</time>
      </trkpt>
      <trkpt lat="43.30712" lon="2.42071">
        <ele>195.515625</ele>
        <time>2021-12-09T10:20:10Z</time>
      </trkpt>
      <trkpt lat="43.30707" lon="2.42058">
        <ele>194.859375</ele>
        <time>2021-12-09T10:20:12Z</time>
      </trkpt>
      <trkpt lat="43.30697" lon="2.42051">
        <ele>194.7734375</ele>
        <time>2021-12-09T10:20:14Z</time>
      </trkpt>
      <trkpt lat="43.30697" lon="2.42052">
        <ele>194.84375</ele>
        <time>2021-12-09T10:20:16Z</time>
      </trkpt>
      <trkpt lat="43.30688" lon="2.4204">
        <ele>194.375</ele>
        <time>2021-12-09T10:20:24Z</time>
      </trkpt>
      <trkpt lat="43.30681" lon="2.42019">
        <ele>192.94921875</ele>
        <time>2021-12-09T10:20:27Z</time>
      </trkpt>
      <trkpt lat="43.30667" lon="2.41997">
        <ele>192.40625</ele>
        <time>2021-12-09T10:20:36Z</time>
      </trkpt>
      <trkpt lat="43.30659" lon="2.41976">
        <ele>191.046875</ele>
        <time>2021-12-09T10:20:42Z</time>
      </trkpt>
      <trkpt lat="43.30642" lon="2.41966">
        <ele>190.2421875</ele>
        <time>2021-12-09T10:20:48Z</time>
      </trkpt>
      <trkpt lat="43.30623" lon="2.41954">
        <ele>190.0625</ele>
        <time>2021-12-09T10:20:55Z</time>
      </trkpt>
      <trkpt lat="43.30602" lon="2.41946">
        <ele>190.0625</ele>
        <time>2021-12-09T10:21:03Z</time>
      </trkpt>
      <trkpt lat="43.30585" lon="2.41938">
        <ele>189.66796875</ele>
        <time>2021-12-09T10:21:09Z</time>
      </trkpt>
      <trkpt lat="43.30573" lon="2.41931">
        <ele>189.09375</ele>
        <time>2021-12-09T10:21:15Z</time>
      </trkpt>
      <trkpt lat="43.30564" lon="2.41927">
        <ele>188.65234375</ele>
        <time>2021-12-09T10:21:21Z</time>
      </trkpt>
      <trkpt lat="43.3055" lon="2.41923">
        <ele>188.30078125</ele>
        <time>2021-12-09T10:21:32Z</time>
      </trkpt>
      <trkpt lat="43.30541" lon="2.41918">
        <ele>187.89453125</ele>
        <time>2021-12-09T10:21:38Z</time>
      </trkpt>
      <trkpt lat="43.30525" lon="2.4191">
        <ele>187.07421875</ele>
        <time>2021-12-09T10:21:47Z</time>
      </trkpt>
      <trkpt lat="43.30516" lon="2.4191">
        <ele>186.70703125</ele>
        <time>2021-12-09T10:21:53Z</time>
      </trkpt>
      <trkpt lat="43.30506" lon="2.41911">
        <ele>186.4609375</ele>
        <time>2021-12-09T10:21:57Z</time>
      </trkpt>
      <trkpt lat="43.30494" lon="2.4191">
        <ele>185.93359375</ele>
        <time>2021-12-09T10:22:00Z</time>
      </trkpt>
      <trkpt lat="43.30485" lon="2.41911">
        <ele>185.73046875</ele>
        <time>2021-12-09T10:22:03Z</time>
      </trkpt>
      <trkpt lat="43.30476" lon="2.41911">
        <ele>185.390625</ele>
        <time>2021-12-09T10:22:06Z</time>
      </trkpt>
      <trkpt lat="43.30465" lon="2.41912">
        <ele>185.21484375</ele>
        <time>2021-12-09T10:22:09Z</time>
      </trkpt>
      <trkpt lat="43.30447" lon="2.41909">
        <ele>184.578125</ele>
        <time>2021-12-09T10:22:16Z</time>
      </trkpt>
      <trkpt lat="43.30434" lon="2.41907">
        <ele>184.44140625</ele>
        <time>2021-12-09T10:22:22Z</time>
      </trkpt>
      <trkpt lat="43.30423" lon="2.41902">
        <ele>184.6953125</ele>
        <time>2021-12-09T10:22:25Z</time>
      </trkpt>
      <trkpt lat="43.30411" lon="2.419">
        <ele>184.98046875</ele>
        <time>2021-12-09T10:22:28Z</time>
      </trkpt>
      <trkpt lat="43.30402" lon="2.41899">
        <ele>185.2421875</ele>
        <time>2021-12-09T10:22:31Z</time>
      </trkpt>
      <trkpt lat="43.30392" lon="2.419">
        <ele>185.2109375</ele>
        <time>2021-12-09T10:22:34Z</time>
      </trkpt>
      <trkpt lat="43.30372" lon="2.41909">
        <ele>183.98046875</ele>
        <time>2021-12-09T10:22:40Z</time>
      </trkpt>
      <trkpt lat="43.30357" lon="2.41913">
        <ele>184.21875</ele>
        <time>2021-12-09T10:22:46Z</time>
      </trkpt>
      <trkpt lat="43.30346" lon="2.41919">
        <ele>184.94921875</ele>
        <time>2021-12-09T10:22:54Z</time>
      </trkpt>
      <trkpt lat="43.30329" lon="2.41929">
        <ele>185.4765625</ele>
        <time>2021-12-09T10:22:59Z</time>
      </trkpt>
      <trkpt lat="43.30304" lon="2.41944">
        <ele>184.9453125</ele>
        <time>2021-12-09T10:23:06Z</time>
      </trkpt>
      <trkpt lat="43.30295" lon="2.41949">
        <ele>185.01171875</ele>
        <time>2021-12-09T10:23:11Z</time>
      </trkpt>
      <trkpt lat="43.30286" lon="2.41949">
        <ele>185.5859375</ele>
        <time>2021-12-09T10:23:17Z</time>
      </trkpt>
      <trkpt lat="43.30277" lon="2.41947">
        <ele>186.6953125</ele>
        <time>2021-12-09T10:23:21Z</time>
      </trkpt>
      <trkpt lat="43.30265" lon="2.41945">
        <ele>188.09375</ele>
        <time>2021-12-09T10:23:25Z</time>
      </trkpt>
      <trkpt lat="43.30247" lon="2.41945">
        <ele>190.16015625</ele>
        <time>2021-12-09T10:23:31Z</time>
      </trkpt>
      <trkpt lat="43.30233" lon="2.41945">
        <ele>192.80859375</ele>
        <time>2021-12-09T10:23:35Z</time>
      </trkpt>
      <trkpt lat="43.30224" lon="2.41945">
        <ele>194.75</ele>
        <time>2021-12-09T10:23:38Z</time>
      </trkpt>
      <trkpt lat="43.30214" lon="2.4195">
        <ele>194.99609375</ele>
        <time>2021-12-09T10:23:40Z</time>
      </trkpt>
      <trkpt lat="43.30204" lon="2.4196">
        <ele>194.37890625</ele>
        <time>2021-12-09T10:23:43Z</time>
      </trkpt>
      <trkpt lat="43.30188" lon="2.41973">
        <ele>194.41796875</ele>
        <time>2021-12-09T10:23:48Z</time>
      </trkpt>
      <trkpt lat="43.30166" lon="2.41986">
        <ele>195.53515625</ele>
        <time>2021-12-09T10:23:54Z</time>
      </trkpt>
      <trkpt lat="43.30152" lon="2.41998">
        <ele>195.1484375</ele>
        <time>2021-12-09T10:24:00Z</time>
      </trkpt>
      <trkpt lat="43.30138" lon="2.42004">
        <ele>195.546875</ele>
        <time>2021-12-09T10:24:05Z</time>
      </trkpt>
      <trkpt lat="43.30128" lon="2.42005">
        <ele>195.6875</ele>
        <time>2021-12-09T10:24:09Z</time>
      </trkpt>
      <trkpt lat="43.30117" lon="2.42008">
        <ele>195.5390625</ele>
        <time>2021-12-09T10:24:14Z</time>
      </trkpt>
      <trkpt lat="43.30105" lon="2.42011">
        <ele>195.53515625</ele>
        <time>2021-12-09T10:24:19Z</time>
      </trkpt>
      <trkpt lat="43.30095" lon="2.42017">
        <ele>195.4453125</ele>
        <time>2021-12-09T10:24:23Z</time>
      </trkpt>
      <trkpt lat="43.30087" lon="2.42038">
        <ele>193.4375</ele>
        <time>2021-12-09T10:24:28Z</time>
      </trkpt>
      <trkpt lat="43.30076" lon="2.42044">
        <ele>192.13671875</ele>
        <time>2021-12-09T10:24:30Z</time>
      </trkpt>
      <trkpt lat="43.30065" lon="2.42052">
        <ele>190.3515625</ele>
        <time>2021-12-09T10:24:33Z</time>
      </trkpt>
      <trkpt lat="43.30049" lon="2.42061">
        <ele>188.2109375</ele>
        <time>2021-12-09T10:24:46Z</time>
      </trkpt>
      <trkpt lat="43.30022" lon="2.42086">
        <ele>185.875</ele>
        <time>2021-12-09T10:24:57Z</time>
      </trkpt>
      <trkpt lat="43.30006" lon="2.42069">
        <ele>189.75</ele>
        <time>2021-12-09T10:25:04Z</time>
      </trkpt>
      <trkpt lat="43.30015" lon="2.42048">
        <ele>189.89453125</ele>
        <time>2021-12-09T10:25:11Z</time>
      </trkpt>
      <trkpt lat="43.30013" lon="2.42039">
        <ele>190.92578125</ele>
        <time>2021-12-09T10:25:14Z</time>
      </trkpt>
      <trkpt lat="43.30002" lon="2.42033">
        <ele>193.3671875</ele>
        <time>2021-12-09T10:25:20Z</time>
      </trkpt>
      <trkpt lat="43.29992" lon="2.42029">
        <ele>195.87109375</ele>
        <time>2021-12-09T10:25:24Z</time>
      </trkpt>
      <trkpt lat="43.29983" lon="2.42028">
        <ele>197.83203125</ele>
        <time>2021-12-09T10:25:31Z</time>
      </trkpt>
      <trkpt lat="43.29965" lon="2.42053">
        <ele>198.5859375</ele>
        <time>2021-12-09T10:25:45Z</time>
      </trkpt>
      <trkpt lat="43.29953" lon="2.42062">
        <ele>200.05078125</ele>
        <time>2021-12-09T10:25:49Z</time>
      </trkpt>
      <trkpt lat="43.29941" lon="2.42077">
        <ele>200.3671875</ele>
        <time>2021-12-09T10:25:56Z</time>
      </trkpt>
      <trkpt lat="43.29933" lon="2.42083">
        <ele>201.09765625</ele>
        <time>2021-12-09T10:26:00Z</time>
      </trkpt>
      <trkpt lat="43.29923" lon="2.42089">
        <ele>202.05859375</ele>
        <time>2021-12-09T10:26:04Z</time>
      </trkpt>
      <trkpt lat="43.29912" lon="2.42102">
        <ele>201.24609375</ele>
        <time>2021-12-09T10:26:12Z</time>
      </trkpt>
      <trkpt lat="43.29892" lon="2.42114">
        <ele>201.03515625</ele>
        <time>2021-12-09T10:26:20Z</time>
      </trkpt>
      <trkpt lat="43.29884" lon="2.42122">
        <ele>200.72265625</ele>
        <time>2021-12-09T10:26:25Z</time>
      </trkpt>
      <trkpt lat="43.29874" lon="2.42124">
        <ele>201.44140625</ele>
        <time>2021-12-09T10:26:29Z</time>
      </trkpt>
      <trkpt lat="43.29865" lon="2.4213">
        <ele>201.62109375</ele>
        <time>2021-12-09T10:26:33Z</time>
      </trkpt>
      <trkpt lat="43.29844" lon="2.42135">
        <ele>202.3828125</ele>
        <time>2021-12-09T10:26:41Z</time>
      </trkpt>
      <trkpt lat="43.29834" lon="2.42135">
        <ele>203.16015625</ele>
        <time>2021-12-09T10:26:45Z</time>
      </trkpt>
      <trkpt lat="43.29823" lon="2.42139">
        <ele>203.15234375</ele>
        <time>2021-12-09T10:26:50Z</time>
      </trkpt>
      <trkpt lat="43.2981" lon="2.42141">
        <ele>203.72265625</ele>
        <time>2021-12-09T10:26:57Z</time>
      </trkpt>
      <trkpt lat="43.298" lon="2.42151">
        <ele>202.31640625</ele>
        <time>2021-12-09T10:27:00Z</time>
      </trkpt>
      <trkpt lat="43.29792" lon="2.42158">
        <ele>201.40625</ele>
        <time>2021-12-09T10:27:04Z</time>
      </trkpt>
      <trkpt lat="43.29782" lon="2.42163">
        <ele>200.94921875</ele>
        <time>2021-12-09T10:27:08Z</time>
      </trkpt>
      <trkpt lat="43.29763" lon="2.42173">
        <ele>200.58203125</ele>
        <time>2021-12-09T10:27:14Z</time>
      </trkpt>
      <trkpt lat="43.29753" lon="2.42177">
        <ele>200.66015625</ele>
        <time>2021-12-09T10:27:18Z</time>
      </trkpt>
      <trkpt lat="43.29744" lon="2.42186">
        <ele>199.97265625</ele>
        <time>2021-12-09T10:27:23Z</time>
      </trkpt>
      <trkpt lat="43.29732" lon="2.42195">
        <ele>198.77734375</ele>
        <time>2021-12-09T10:27:29Z</time>
      </trkpt>
      <trkpt lat="43.29723" lon="2.422">
        <ele>198.35546875</ele>
        <time>2021-12-09T10:27:32Z</time>
      </trkpt>
      <trkpt lat="43.29714" lon="2.42206">
        <ele>198.01171875</ele>
        <time>2021-12-09T10:27:35Z</time>
      </trkpt>
      <trkpt lat="43.29699" lon="2.4222">
        <ele>197.859375</ele>
        <time>2021-12-09T10:27:41Z</time>
      </trkpt>
      <trkpt lat="43.29687" lon="2.42238">
        <ele>196.74609375</ele>
        <time>2021-12-09T10:27:48Z</time>
      </trkpt>
      <trkpt lat="43.2967" lon="2.42255">
        <ele>194.4609375</ele>
        <time>2021-12-09T10:27:54Z</time>
      </trkpt>
      <trkpt lat="43.29657" lon="2.42262">
        <ele>193.88671875</ele>
        <time>2021-12-09T10:28:00Z</time>
      </trkpt>
      <trkpt lat="43.29648" lon="2.42266">
        <ele>193.84765625</ele>
        <time>2021-12-09T10:28:06Z</time>
      </trkpt>
      <trkpt lat="43.29637" lon="2.42271">
        <ele>193.8046875</ele>
        <time>2021-12-09T10:28:20Z</time>
      </trkpt>
      <trkpt lat="43.29629" lon="2.42279">
        <ele>193.15234375</ele>
        <time>2021-12-09T10:28:25Z</time>
      </trkpt>
      <trkpt lat="43.29622" lon="2.42294">
        <ele>192.70703125</ele>
        <time>2021-12-09T10:28:31Z</time>
      </trkpt>
      <trkpt lat="43.2961" lon="2.42323">
        <ele>190.1015625</ele>
        <time>2021-12-09T10:28:39Z</time>
      </trkpt>
      <trkpt lat="43.29592" lon="2.42349">
        <ele>188.828125</ele>
        <time>2021-12-09T10:28:46Z</time>
      </trkpt>
      <trkpt lat="43.29568" lon="2.42372">
        <ele>187.60546875</ele>
        <time>2021-12-09T10:28:55Z</time>
      </trkpt>
      <trkpt lat="43.29552" lon="2.42391">
        <ele>186.390625</ele>
        <time>2021-12-09T10:29:02Z</time>
      </trkpt>
      <trkpt lat="43.29532" lon="2.42414">
        <ele>185.07421875</ele>
        <time>2021-12-09T10:29:10Z</time>
      </trkpt>
      <trkpt lat="43.29517" lon="2.42437">
        <ele>183.66015625</ele>
        <time>2021-12-09T10:29:18Z</time>
      </trkpt>
      <trkpt lat="43.29501" lon="2.42455">
        <ele>182.47265625</ele>
        <time>2021-12-09T10:29:26Z</time>
      </trkpt>
      <trkpt lat="43.29481" lon="2.42469">
        <ele>181.34375</ele>
        <time>2021-12-09T10:29:34Z</time>
      </trkpt>
      <trkpt lat="43.29462" lon="2.42481">
        <ele>179.73828125</ele>
        <time>2021-12-09T10:29:42Z</time>
      </trkpt>
      <trkpt lat="43.29448" lon="2.42487">
        <ele>178.5</ele>
        <time>2021-12-09T10:29:48Z</time>
      </trkpt>
      <trkpt lat="43.29435" lon="2.42501">
        <ele>177.37890625</ele>
        <time>2021-12-09T10:29:55Z</time>
      </trkpt>
      <trkpt lat="43.29426" lon="2.42518">
        <ele>176.60546875</ele>
        <time>2021-12-09T10:30:04Z</time>
      </trkpt>
      <trkpt lat="43.29429" lon="2.42532">
        <ele>176.828125</ele>
        <time>2021-12-09T10:30:13Z</time>
      </trkpt>
      <trkpt lat="43.29432" lon="2.4255">
        <ele>177.046875</ele>
        <time>2021-12-09T10:30:23Z</time>
      </trkpt>
      <trkpt lat="43.29436" lon="2.42565">
        <ele>177.3046875</ele>
        <time>2021-12-09T10:30:29Z</time>
      </trkpt>
      <trkpt lat="43.29434" lon="2.42588">
        <ele>177.18359375</ele>
        <time>2021-12-09T10:30:38Z</time>
      </trkpt>
      <trkpt lat="43.29433" lon="2.42592">
        <ele>177.171875</ele>
        <time>2021-12-09T10:30:40Z</time>
      </trkpt>
    </trkseg>
  </trk>
</gpx>